Observation data for Hobbs on 04/16/2021      Previous  Date  Next       Current Mesonet Observations  Soil Data  Daily Summary Page  Observations in Plain Language
KHO1 160500Z 15011KT 10/10 A2989 RMK A01 T00970097  RH  100%=      5-min Rain = 0
KHO1 160501Z 15009KT 10/10 A2989 RMK A01 T00970097  RH  100%=      5-min Rain = 0
KHO1 160502Z 15009KT 10/10 A2989 RMK A01 T00970097  RH  100%=      5-min Rain = 0
KHO1 160503Z 14010KT 10/10 A2989 RMK A01 T00970097  RH  100%=      5-min Rain = 0
KHO1 160504Z 15010KT 10/10 A2989 RMK A01 T00970097  RH  100%=      5-min Rain = 0
KHO1 160505Z 15010KT 10/10 A2989 RMK A01 T00970097  RH  100%=      5-min Rain = 0
KHO1 160506Z 14012KT 10/10 A2989 RMK A01 T00970097  RH  100%=      5-min Rain = 0
KHO1 160507Z 14011KT 10/10 A2989 RMK A01 T00970097  RH  100%=      5-min Rain = 0
KHO1 160508Z 15010KT 10/10 A2989 RMK A01 T00970097  RH  100%=      5-min Rain = 0
KHO1 160509Z 15011KT 10/10 A2988 RMK A01 T00970097  RH  100%=      5-min Rain = 0
KHO1 160510Z 15012KT 10/10 A2988 RMK A01 T00970097  RH  100%=      5-min Rain = 0
KHO1 160511Z 15011KT 10/10 A2988 RMK A01 T00970097  RH  100%=      5-min Rain = 0
KHO1 160512Z 15010KT 10/10 A2989 RMK A01 T00970097  RH  100%=      5-min Rain = 0
KHO1 160513Z 15009KT 10/10 A2989 RMK A01 T00970097  RH  100%=      5-min Rain = 0
KHO1 160514Z 15011KT 10/10 A2989 RMK A01 T00970097  RH  100%=      5-min Rain = 0
KHO1 160515Z 15011KT 10/10 A2989 RMK A01 T00970097  RH  100%=      5-min Rain = 0
KHO1 160516Z 15012KT 10/10 A2989 RMK A01 T00970097  RH  100%=      5-min Rain = 0
KHO1 160517Z 14012KT 10/10 A2989 RMK A01 T00970097  RH  100%=      5-min Rain = 0
KHO1 160518Z 14012KT 10/10 A2989 RMK A01 T00970097  RH  100%=      5-min Rain = 0
KHO1 160519Z 15010KT 10/10 A2989 RMK A01 T00960096  RH  100%=      5-min Rain = 0
KHO1 160520Z 15010KT 10/10 A2989 RMK A01 T00970097  RH  100%=      5-min Rain = 0
KHO1 160521Z 15011KT 10/10 A2989 RMK A01 T00960096  RH  100%=      5-min Rain = 0
KHO1 160522Z 15009KT 10/10 A2989 RMK A01 T00960096  RH  100%=      5-min Rain = 0
KHO1 160523Z 14009KT 10/10 A2988 RMK A01 T00960097  RH  100%=      5-min Rain = 0
KHO1 160524Z 14011KT 10/10 A2988 RMK A01 T00970097  RH  100%=      5-min Rain = 0
KHO1 160525Z 15011KT 10/10 A2988 RMK A01 T00960097  RH  100%=      5-min Rain = 0
KHO1 160526Z 16010KT 10/10 A2989 RMK A01 T00970097  RH  100%=      5-min Rain = 0
KHO1 160527Z 15011KT 10/10 A2989 RMK A01 T00970097  RH  100%=      5-min Rain = 0
KHO1 160528Z 15011KT 10/10 A2988 RMK A01 T00970097  RH  100%=      5-min Rain = 0
KHO1 160529Z 15011KT 10/10 A2988 RMK A01 T00970097  RH  100%=      5-min Rain = 0
KHO1 160530Z 14010KT 10/10 A2988 RMK A01 T00970097  RH  100%=      5-min Rain = 0
KHO1 160531Z 15008KT 10/10 A2989 RMK A01 T00970097  RH  100%=      5-min Rain = 0
KHO1 160532Z 15008KT 10/10 A2989 RMK A01 T00970097  RH  100%=      5-min Rain = 0
KHO1 160533Z 15008KT 10/10 A2989 RMK A01 T00970097  RH  100%=      5-min Rain = 0
KHO1 160534Z 16007KT 10/10 A2989 RMK A01 T00970097  RH  100%=      5-min Rain = 0
KHO1 160535Z 16008KT 10/10 A2989 RMK A01 T00970097  RH  100%=      5-min Rain = 0
KHO1 160536Z 16010KT 10/10 A2988 RMK A01 T00970097  RH  100%=      5-min Rain = 0
KHO1 160537Z 16009KT 10/10 A2989 RMK A01 T00970097  RH  100%=      5-min Rain = 0
KHO1 160538Z 16010KT 10/10 A2988 RMK A01 T00970097  RH  100%=      5-min Rain = 0
KHO1 160539Z 15008KT 10/10 A2988 RMK A01 T00970097  RH  100%=      5-min Rain = 0
KHO1 160540Z 15009KT 10/10 A2988 RMK A01 T00970097  RH  100%=      5-min Rain = 0
KHO1 160541Z 15009KT 10/10 A2988 RMK A01 T00970097  RH  100%=      5-min Rain = 0
KHO1 160542Z 15008KT 10/10 A2988 RMK A01 T00970097  RH  100%=      5-min Rain = 0
KHO1 160543Z 15009KT 10/10 A2988 RMK A01 T00970097  RH  100%=      5-min Rain = 0
KHO1 160544Z 15009KT 10/10 A2988 RMK A01 T00970097  RH  100%=      5-min Rain = 0
KHO1 160545Z 16011KT 10/10 A2988 RMK A01 T00970097  RH  100%=      5-min Rain = 0
KHO1 160546Z 16010KT 10/10 A2988 RMK A01 T00970097  RH  100%=      5-min Rain = 0
KHO1 160547Z 15011KT 10/10 A2988 RMK A01 T00970097  RH  100%=      5-min Rain = 0
KHO1 160548Z 16009KT 10/10 A2988 RMK A01 T00970097  RH  100%=      5-min Rain = 0
KHO1 160549Z 16011KT 10/10 A2988 RMK A01 T00970097  RH  100%=      5-min Rain = 0
KHO1 160550Z 16011KT 10/10 A2988 RMK A01 T00970097  RH  100%=      5-min Rain = 0
KHO1 160551Z 16010KT 10/10 A2988 RMK A01 T00970097  RH  100%=      5-min Rain = 0
KHO1 160552Z 16009KT 10/10 A2988 RMK A01 T00970097  RH  100%=      5-min Rain = 0
KHO1 160553Z 16009KT 10/10 A2988 RMK A01 T00970097  RH  100%=      5-min Rain = 0
KHO1 160554Z 16010KT 10/10 A2988 RMK A01 T00970097  RH  100%=      5-min Rain = 0
KHO1 160555Z 16010KT 10/10 A2988 RMK A01 T00970097  RH  100%=      5-min Rain = 0
KHO1 160556Z 16009KT 10/10 A2988 RMK A01 T00970097  RH  100%=      5-min Rain = 0
KHO1 160557Z 16007KT 10/10 A2988 RMK A01 T00970097  RH  100%=      5-min Rain = 0
KHO1 160558Z 15009KT 10/10 A2988 RMK A01 T00980098  RH  100%=      5-min Rain = 0
KHO1 160559Z 16008KT 10/10 A2988 RMK A01 T00970097  RH  100%=      5-min Rain = 0
KHO1 160600Z 16009KT 10/10 A2989 RMK A01 T00980098  RH  100%=      5-min Rain = 0
KHO1 160601Z 16007KT 10/10 A2989 RMK A01 T00970098  RH  100%=      5-min Rain = 0
KHO1 160602Z 15007KT 10/10 A2989 RMK A01 T00980098  RH  100%=      5-min Rain = 0
KHO1 160603Z 15006KT 10/10 A2989 RMK A01 T00980098  RH  100%=      5-min Rain = 0
KHO1 160604Z 15007KT 10/10 A2989 RMK A01 T00980098  RH  100%=      5-min Rain = 0
KHO1 160605Z 15006KT 10/10 A2989 RMK A01 T00980098  RH  100%=      5-min Rain = 0
KHO1 160606Z 14005KT 10/10 A2989 RMK A01 T00980098  RH  100%=      5-min Rain = 0
KHO1 160607Z 14004KT 10/10 A2989 RMK A01 T00980098  RH  100%=      5-min Rain = 0
KHO1 160608Z 15005KT 10/10 A2989 RMK A01 T00980098  RH  100%=      5-min Rain = 0
KHO1 160609Z 12004KT 10/10 A2989 RMK A01 T00980098  RH  100%=      5-min Rain = 0
KHO1 160610Z 13005KT 10/10 A2989 RMK A01 T00980098  RH  100%=      5-min Rain = 0
KHO1 160611Z 12004KT 10/10 A2989 RMK A01 T00980098  RH  100%=      5-min Rain = 0
KHO1 160612Z 12003KT 10/10 A2989 RMK A01 T00980098  RH  100%=      5-min Rain = 0
KHO1 160613Z 13004KT 10/10 A2989 RMK A01 T00980099  RH  100%=      5-min Rain = 0
KHO1 160614Z 13003KT 10/10 A2989 RMK A01 T00990099  RH  100%=      5-min Rain = 0
KHO1 160615Z 14003KT 10/10 A2989 RMK A01 T00990099  RH  100%=      5-min Rain = 0
KHO1 160616Z 14003KT 10/10 A2989 RMK A01 T00990099  RH  100%=      5-min Rain = 0
KHO1 160617Z 14003KT 10/10 A2989 RMK A01 T00990099  RH  100%=      5-min Rain = 0
KHO1 160618Z 15003KT 10/10 A2989 RMK A01 T00990099  RH  100%=      5-min Rain = 0
KHO1 160619Z 16003KT 10/10 A2989 RMK A01 T00990099  RH  100%=      5-min Rain = 0
KHO1 160620Z 16004KT 10/10 A2989 RMK A01 T00990099  RH  100%=      5-min Rain = 0
KHO1 160621Z 16005KT 10/10 A2989 RMK A01 T00990099  RH  100%=      5-min Rain = 0
KHO1 160622Z 16005KT 10/10 A2989 RMK A01 T00990099  RH  100%=      5-min Rain = 0
KHO1 160623Z 17006KT 10/10 A2989 RMK A01 T00990099  RH  100%=      5-min Rain = 0
KHO1 160624Z 16006KT 10/10 A2989 RMK A01 T00990099  RH  100%=      5-min Rain = 0
KHO1 160625Z 16005KT 10/10 A2989 RMK A01 T00990099  RH  100%=      5-min Rain = 0
KHO1 160626Z 16005KT 10/10 A2989 RMK A01 T00990099  RH  100%=      5-min Rain = 0
KHO1 160627Z 16005KT 10/10 A2989 RMK A01 T00990099  RH  100%=      5-min Rain = 0
KHO1 160628Z 17005KT 10/10 A2989 RMK A01 T00990099  RH  100%=      5-min Rain = 0
KHO1 160629Z 15004KT 10/10 A2989 RMK A01 T00990099  RH  100%=      5-min Rain = 0
KHO1 160630Z 15003KT 10/10 A2989 RMK A01 T01000100  RH  100%=      5-min Rain = 0
KHO1 160631Z 15004KT 10/10 A2989 RMK A01 T01000100  RH  100%=      5-min Rain = 0
KHO1 160632Z 16005KT 10/10 A2989 RMK A01 T00990100  RH  100%=      5-min Rain = 0
KHO1 160633Z 15005KT 10/10 A2989 RMK A01 T01000100  RH  100%=      5-min Rain = 0
KHO1 160634Z 14004KT 10/10 A2989 RMK A01 T00990100  RH  100%=      5-min Rain = 0
KHO1 160635Z 14004KT 10/10 A2989 RMK A01 T01000100  RH  100%=      5-min Rain = 0
KHO1 160636Z 14003KT 10/10 A2989 RMK A01 T00990099  RH  100%=      5-min Rain = 0
KHO1 160637Z 15004KT 10/10 A2989 RMK A01 T01000100  RH  100%=      5-min Rain = 0
KHO1 160638Z 15004KT 10/10 A2989 RMK A01 T01000100  RH  100%=      5-min Rain = 0
KHO1 160639Z 15004KT 10/10 A2989 RMK A01 T00990100  RH  100%=      5-min Rain = 0
KHO1 160640Z 14004KT 10/10 A2989 RMK A01 T00990100  RH  100%=      5-min Rain = 0
KHO1 160641Z 15006KT 10/10 A2989 RMK A01 T01000100  RH  100%=      5-min Rain = 0
KHO1 160642Z 15006KT 10/10 A2989 RMK A01 T01000100  RH  100%=      5-min Rain = 0
KHO1 160643Z 15006KT 10/10 A2989 RMK A01 T01000100  RH  100%=      5-min Rain = 0
KHO1 160644Z 15006KT 10/10 A2989 RMK A01 T01000100  RH  100%=      5-min Rain = 0
KHO1 160645Z 16005KT 10/10 A2989 RMK A01 T01000100  RH  100%=      5-min Rain = 0
KHO1 160646Z 15005KT 10/10 A2989 RMK A01 T01000100  RH  100%=      5-min Rain = 0
KHO1 160647Z 15004KT 10/10 A2989 RMK A01 T01000100  RH  100%=      5-min Rain = 0
KHO1 160648Z 16004KT 10/10 A2989 RMK A01 T01000100  RH  100%=      5-min Rain = 0
KHO1 160649Z 15004KT 10/10 A2989 RMK A01 T01000100  RH  100%=      5-min Rain = 0
KHO1 160650Z 16004KT 10/10 A2989 RMK A01 T01000100  RH  100%=      5-min Rain = 0
KHO1 160651Z 16004KT 10/10 A2989 RMK A01 T01000100  RH  100%=      5-min Rain = 0
KHO1 160652Z 17004KT 10/10 A2989 RMK A01 T01000100  RH  100%=      5-min Rain = 0
KHO1 160653Z 15005KT 10/10 A2988 RMK A01 T01000100  RH  100%=      5-min Rain = 0
KHO1 160654Z 15005KT 10/10 A2988 RMK A01 T01000100  RH  100%=      5-min Rain = 0
KHO1 160655Z 16006KT 10/10 A2988 RMK A01 T01000100  RH  100%=      5-min Rain = 0
KHO1 160656Z 16005KT 10/10 A2988 RMK A01 T01000100  RH  100%=      5-min Rain = 0
KHO1 160657Z 15006KT 10/10 A2988 RMK A01 T01000100  RH  100%=      5-min Rain = 0
KHO1 160658Z 16005KT 10/10 A2988 RMK A01 T01000100  RH  100%=      5-min Rain = 0
KHO1 160659Z 15003KT 10/10 A2989 RMK A01 T01000100  RH  100%=      5-min Rain = 0
KHO1 160700Z 16003KT 10/10 A2989 RMK A01 T01000100  RH  100%=      5-min Rain = 0
KHO1 160701Z 16003KT 10/10 A2989 RMK A01 T01000100  RH  100%=      5-min Rain = 0
KHO1 160702Z 14002KT 10/10 A2989 RMK A01 T01000100  RH  100%=      5-min Rain = 0
KHO1 160703Z 13002KT 10/10 A2988 RMK A01 T01000100  RH  100%=      5-min Rain = 0
KHO1 160704Z 11002KT 10/10 A2989 RMK A01 T01000100  RH  100%=      5-min Rain = 0
KHO1 160705Z 11002KT 10/10 A2989 RMK A01 T01000100  RH  100%=      5-min Rain = 0
KHO1 160706Z 11002KT 10/10 A2988 RMK A01 T01000100  RH  100%=      5-min Rain = 0
KHO1 160707Z 11003KT 10/10 A2988 RMK A01 T01000100  RH  100%=      5-min Rain = 0
KHO1 160708Z 12003KT 10/10 A2988 RMK A01 T01000100  RH  100%=      5-min Rain = 0
KHO1 160709Z 12004KT 10/10 A2988 RMK A01 T01000100  RH  100%=      5-min Rain = 0
KHO1 160710Z 13003KT 10/10 A2988 RMK A01 T01000100  RH  100%=      5-min Rain = 0
KHO1 160711Z 12003KT 10/10 A2988 RMK A01 T01000100  RH  100%=      5-min Rain = 0
KHO1 160712Z 13003KT 10/10 A2988 RMK A01 T01000100  RH  100%=      5-min Rain = 0
KHO1 160713Z 14003KT 10/10 A2988 RMK A01 T01000100  RH  100%=      5-min Rain = 0
KHO1 160714Z 15003KT 10/10 A2988 RMK A01 T01000100  RH  100%=      5-min Rain = 0
KHO1 160715Z 16004KT 10/10 A2988 RMK A01 T01000100  RH  100%=      5-min Rain = 0
KHO1 160716Z 14004KT 10/10 A2988 RMK A01 T01000100  RH  100%=      5-min Rain = 0
KHO1 160717Z 14004KT 10/10 A2988 RMK A01 T01000100  RH  100%=      5-min Rain = 0
KHO1 160718Z 14004KT 10/10 A2988 RMK A01 T01000100  RH  100%=      5-min Rain = 0
KHO1 160719Z 14004KT 10/10 A2988 RMK A01 T01000100  RH  100%=      5-min Rain = 0
KHO1 160720Z 15004KT 10/10 A2988 RMK A01 T01000100  RH  100%=      5-min Rain = 0
KHO1 160721Z 15004KT 10/10 A2988 RMK A01 T01000100  RH  100%=      5-min Rain = 0
KHO1 160722Z 14004KT 10/10 A2988 RMK A01 T01000100  RH  100%=      5-min Rain = 0
KHO1 160723Z 13003KT 10/10 A2988 RMK A01 T01000100  RH  100%=      5-min Rain = 0
KHO1 160724Z 12003KT 10/10 A2988 RMK A01 T01000100  RH  100%=      5-min Rain = 0
KHO1 160725Z 13003KT 10/10 A2988 RMK A01 T01000100  RH  100%=      5-min Rain = 0
KHO1 160726Z 13003KT 10/10 A2988 RMK A01 T01000100  RH  100%=      5-min Rain = 0
KHO1 160727Z 11002KT 10/10 A2988 RMK A01 T01000100  RH  100%=      5-min Rain = 0
KHO1 160728Z 12002KT 10/10 A2988 RMK A01 T01000100  RH  100%=      5-min Rain = 0
KHO1 160729Z 12003KT 10/10 A2988 RMK A01 T01000100  RH  100%=      5-min Rain = 0
KHO1 160730Z 13002KT 10/10 A2988 RMK A01 T01000100  RH  100%=      5-min Rain = 0
KHO1 160731Z 13002KT 10/10 A2988 RMK A01 T01000100  RH  100%=      5-min Rain = 0
KHO1 160732Z 13003KT 10/10 A2988 RMK A01 T01000100  RH  100%=      5-min Rain = 0
KHO1 160733Z 13004KT 10/10 A2988 RMK A01 T01000100  RH  100%=      5-min Rain = 0
KHO1 160734Z 13004KT 10/10 A2987 RMK A01 T01000100  RH  100%=      5-min Rain = 0
KHO1 160735Z 14005KT 10/10 A2987 RMK A01 T01000100  RH  100%=      5-min Rain = 0
KHO1 160736Z 14005KT 10/10 A2987 RMK A01 T01000100  RH  100%=      5-min Rain = 0
KHO1 160737Z 15004KT 10/10 A2987 RMK A01 T00990100  RH  100%=      5-min Rain = 0
KHO1 160738Z 15004KT 10/10 A2987 RMK A01 T01000100  RH  100%=      5-min Rain = 0
KHO1 160739Z 15005KT 10/10 A2987 RMK A01 T01000100  RH  100%=      5-min Rain = 0
KHO1 160740Z 15004KT 10/10 A2987 RMK A01 T00990099  RH  100%=      5-min Rain = 0
KHO1 160741Z 15003KT 10/10 A2987 RMK A01 T00990100  RH  100%=      5-min Rain = 0
KHO1 160742Z 14003KT 10/10 A2987 RMK A01 T01000100  RH  100%=      5-min Rain = 0
KHO1 160743Z 12003KT 10/10 A2987 RMK A01 T01000100  RH  100%=      5-min Rain = 0
KHO1 160744Z 11003KT 10/10 A2987 RMK A01 T01000100  RH  100%=      5-min Rain = 0
KHO1 160745Z 11003KT 10/10 A2988 RMK A01 T01000100  RH  100%=      5-min Rain = 0
KHO1 160746Z 10002KT 10/10 A2988 RMK A01 T01000100  RH  100%=      5-min Rain = 0
KHO1 160747Z 10002KT 10/10 A2988 RMK A01 T01000100  RH  100%=      5-min Rain = 0
KHO1 160748Z 10003KT 10/10 A2988 RMK A01 T01000100  RH  100%=      5-min Rain = 0
KHO1 160749Z 10002KT 10/10 A2988 RMK A01 T01000100  RH  100%=      5-min Rain = 0
KHO1 160750Z 09001KT 10/10 A2988 RMK A01 T01000100  RH  100%=      5-min Rain = 0
KHO1 160751Z 10002KT 10/10 A2988 RMK A01 T01000100  RH  100%=      5-min Rain = 0
KHO1 160752Z 11002KT 10/10 A2987 RMK A01 T01000100  RH  100%=      5-min Rain = 0
KHO1 160753Z 12002KT 10/10 A2987 RMK A01 T01000100  RH  100%=      5-min Rain = 0
KHO1 160754Z 13003KT 10/10 A2987 RMK A01 T01000100  RH  100%=      5-min Rain = 0
KHO1 160755Z 13003KT 10/10 A2987 RMK A01 T01000100  RH  100%=      5-min Rain = 0
KHO1 160756Z 13002KT 10/10 A2987 RMK A01 T01000100  RH  100%=      5-min Rain = 0
KHO1 160757Z 15002KT 10/10 A2987 RMK A01 T01000100  RH  100%=      5-min Rain = 0
KHO1 160758Z 16003KT 10/10 A2987 RMK A01 T01000100  RH  100%=      5-min Rain = 0
KHO1 160759Z 15003KT 10/10 A2987 RMK A01 T01000100  RH  100%=      5-min Rain = 0
KHO1 160800Z 14003KT 10/10 A2987 RMK A01 T01000100  RH  100%=      5-min Rain = 0
KHO1 160801Z 15002KT 10/10 A2987 RMK A01 T01000100  RH  100%=      5-min Rain = 0
KHO1 160802Z 16002KT 10/10 A2987 RMK A01 T01000100  RH  100%=      5-min Rain = 0
KHO1 160803Z 15002KT 10/10 A2987 RMK A01 T01000100  RH  100%=      5-min Rain = 0
KHO1 160804Z 15002KT 10/10 A2987 RMK A01 T01000100  RH  100%=      5-min Rain = 0
KHO1 160805Z 15002KT 10/10 A2987 RMK A01 T00990100  RH  100%=      5-min Rain = 0
KHO1 160806Z 13002KT 10/10 A2987 RMK A01 T01000100  RH  100%=      5-min Rain = 0
KHO1 160807Z 13002KT 10/10 A2987 RMK A01 T01000100  RH  100%=      5-min Rain = 0
KHO1 160808Z 13003KT 10/10 A2987 RMK A01 T01000100  RH  100%=      5-min Rain = 0
KHO1 160809Z 14003KT 10/10 A2987 RMK A01 T01000100  RH  100%=      5-min Rain = 0
KHO1 160810Z 14003KT 10/10 A2987 RMK A01 T01000100  RH  100%=      5-min Rain = 0
KHO1 160811Z 14004KT 10/10 A2986 RMK A01 T01000100  RH  100%=      5-min Rain = 0
KHO1 160812Z 14004KT 10/10 A2986 RMK A01 T01000100  RH  100%=      5-min Rain = 0
KHO1 160813Z 15004KT 10/10 A2986 RMK A01 T01000100  RH  100%=      5-min Rain = 0
KHO1 160814Z 15004KT 10/10 A2986 RMK A01 T01000100  RH  100%=      5-min Rain = 0
KHO1 160815Z 16003KT 10/10 A2986 RMK A01 T01000100  RH  100%=      5-min Rain = 0
KHO1 160816Z 16003KT 10/10 A2986 RMK A01 T01000100  RH  100%=      5-min Rain = 0
KHO1 160817Z 16003KT 10/10 A2986 RMK A01 T01000100  RH  100%=      5-min Rain = 0
KHO1 160818Z 15004KT 10/10 A2986 RMK A01 T01000100  RH  100%=      5-min Rain = 0
KHO1 160819Z 13003KT 10/10 A2986 RMK A01 T01000100  RH  100%=      5-min Rain = 0
KHO1 160820Z 15003KT 10/10 A2986 RMK A01 T01000100  RH  100%=      5-min Rain = 0
KHO1 160821Z 15003KT 10/10 A2986 RMK A01 T01000100  RH  100%=      5-min Rain = 0
KHO1 160822Z 14003KT 10/10 A2986 RMK A01 T01000100  RH  100%=      5-min Rain = 0
KHO1 160823Z 15003KT 10/10 A2986 RMK A01 T01000100  RH  100%=      5-min Rain = 0
KHO1 160824Z 14003KT 10/10 A2986 RMK A01 T01000100  RH  100%=      5-min Rain = 0
KHO1 160825Z 14003KT 10/10 A2986 RMK A01 T01000100  RH  100%=      5-min Rain = 0
KHO1 160826Z 15002KT 10/10 A2986 RMK A01 T01000100  RH  100%=      5-min Rain = 0
KHO1 160827Z 15002KT 10/10 A2986 RMK A01 T01000100  RH  100%=      5-min Rain = 0
KHO1 160828Z 14002KT 10/10 A2986 RMK A01 T01000100  RH  100%=      5-min Rain = 0
KHO1 160829Z 15003KT 10/10 A2986 RMK A01 T01000100  RH  100%=      5-min Rain = 0
KHO1 160830Z 17003KT 10/10 A2986 RMK A01 T01000100  RH  100%=      5-min Rain = 0
KHO1 160831Z 17004KT 10/10 A2986 RMK A01 T01000100  RH  100%=      5-min Rain = 0
KHO1 160832Z 17004KT 10/10 A2986 RMK A01 T01000100  RH  100%=      5-min Rain = 0
KHO1 160833Z 17004KT 10/10 A2986 RMK A01 T01000100  RH  100%=      5-min Rain = 0
KHO1 160834Z 16004KT 10/10 A2986 RMK A01 T01000100  RH  100%=      5-min Rain = 0
KHO1 160835Z 16003KT 10/10 A2986 RMK A01 T01000100  RH  100%=      5-min Rain = 0
KHO1 160836Z 16003KT 10/10 A2986 RMK A01 T01010101  RH  100%=      5-min Rain = 0
KHO1 160837Z 17002KT 10/10 A2986 RMK A01 T01000100  RH  100%=      5-min Rain = 0
KHO1 160838Z 18002KT 10/10 A2986 RMK A01 T01000101  RH  100%=      5-min Rain = 0
KHO1 160839Z 17002KT 10/10 A2986 RMK A01 T01000101  RH  100%=      5-min Rain = 0
KHO1 160840Z 16001KT 10/10 A2986 RMK A01 T01000101  RH  100%=      5-min Rain = 0
KHO1 160841Z 15002KT 10/10 A2986 RMK A01 T01000101  RH  100%=      5-min Rain = 0
KHO1 160842Z 14002KT 10/10 A2986 RMK A01 T01000101  RH  100%=      5-min Rain = 0
KHO1 160843Z 12001KT 10/10 A2986 RMK A01 T01010101  RH  100%=      5-min Rain = 0
KHO1 160844Z 12001KT 10/10 A2986 RMK A01 T01010101  RH  100%=      5-min Rain = 0
KHO1 160845Z 13001KT 10/10 A2986 RMK A01 T01010101  RH  100%=      5-min Rain = 0
KHO1 160846Z 14001KT 10/10 A2986 RMK A01 T01010101  RH  100%=      5-min Rain = 0
KHO1 160847Z 13002KT 10/10 A2986 RMK A01 T01010101  RH  100%=      5-min Rain = 0
KHO1 160848Z 13002KT 10/10 A2986 RMK A01 T01010101  RH  100%=      5-min Rain = 0
KHO1 160849Z 14002KT 10/10 A2986 RMK A01 T01000100  RH  100%=      5-min Rain = 0
KHO1 160850Z 14002KT 10/10 A2986 RMK A01 T01000100  RH  100%=      5-min Rain = 0
KHO1 160851Z 14002KT 10/10 A2986 RMK A01 T01000100  RH  100%=      5-min Rain = 0
KHO1 160852Z 14002KT 10/10 A2986 RMK A01 T01000101  RH  100%=      5-min Rain = 0
KHO1 160853Z 14002KT 10/10 A2986 RMK A01 T01000101  RH  100%=      5-min Rain = 0
KHO1 160854Z 15002KT 10/10 A2986 RMK A01 T01000100  RH  100%=      5-min Rain = 0
KHO1 160855Z 16002KT 10/10 A2986 RMK A01 T01000101  RH  100%=      5-min Rain = 0
KHO1 160856Z 16002KT 10/10 A2986 RMK A01 T01000101  RH  100%=      5-min Rain = 0
KHO1 160857Z 16002KT 10/10 A2986 RMK A01 T01000101  RH  100%=      5-min Rain = 0
KHO1 160858Z 17002KT 10/10 A2986 RMK A01 T01010101  RH  100%=      5-min Rain = 0
KHO1 160859Z 19003KT 10/10 A2986 RMK A01 T01010101  RH  100%=      5-min Rain = 0
KHO1 160900Z 18003KT 10/10 A2986 RMK A01 T01010101  RH  100%=      5-min Rain = 0
KHO1 160901Z 17003KT 10/10 A2986 RMK A01 T01010101  RH  100%=      5-min Rain = 0.01
KHO1 160902Z 17003KT 10/10 A2986 RMK A01 T01010101  RH  100%=      5-min Rain = 0
KHO1 160903Z 17003KT 10/10 A2986 RMK A01 T01010101  RH  100%=      5-min Rain = 0
KHO1 160904Z 17003KT 10/10 A2986 RMK A01 T01010101  RH  100%=      5-min Rain = 0
KHO1 160905Z 17003KT 10/10 A2986 RMK A01 T01010101  RH  100%=      5-min Rain = 0
KHO1 160906Z 17003KT 10/10 A2986 RMK A01 T01010101  RH  100%=      5-min Rain = 0
KHO1 160907Z 17003KT 10/10 A2986 RMK A01 T01010101  RH  100%=      5-min Rain = 0
KHO1 160908Z 17004KT 10/10 A2986 RMK A01 T01010101  RH  100%=      5-min Rain = 0
KHO1 160909Z 18004KT 10/10 A2986 RMK A01 T01010101  RH  100%=      5-min Rain = 0
KHO1 160910Z 18004KT 10/10 A2986 RMK A01 T01010101  RH  100%=      5-min Rain = 0
KHO1 160911Z 17003KT 10/10 A2986 RMK A01 T01010101  RH  100%=      5-min Rain = 0
KHO1 160912Z 18004KT 10/10 A2986 RMK A01 T01010101  RH  100%=      5-min Rain = 0
KHO1 160913Z 18004KT 10/10 A2986 RMK A01 T01010101  RH  100%=      5-min Rain = 0
KHO1 160914Z 17004KT 10/10 A2986 RMK A01 T01010101  RH  100%=      5-min Rain = 0
KHO1 160915Z 17003KT 10/10 A2986 RMK A01 T01010101  RH  100%=      5-min Rain = 0
KHO1 160916Z 18003KT 10/10 A2986 RMK A01 T01010102  RH  100%=      5-min Rain = 0
KHO1 160917Z 20001KT 10/10 A2986 RMK A01 T01010102  RH  100%=      5-min Rain = 0
KHO1 160918Z 19001KT 10/10 A2986 RMK A01 T01010102  RH  100%=      5-min Rain = 0
KHO1 160919Z 19002KT 10/10 A2986 RMK A01 T01020102  RH  100%=      5-min Rain = 0
KHO1 160920Z 18003KT 10/10 A2986 RMK A01 T01010101  RH  100%=      5-min Rain = 0
KHO1 160921Z 18003KT 10/10 A2986 RMK A01 T01010101  RH  100%=      5-min Rain = 0
KHO1 160922Z 16002KT 10/10 A2986 RMK A01 T01010101  RH  100%=      5-min Rain = 0
KHO1 160923Z 18002KT 10/10 A2986 RMK A01 T01010101  RH  100%=      5-min Rain = 0
KHO1 160924Z 19001KT 10/10 A2986 RMK A01 T01020102  RH  100%=      5-min Rain = 0
KHO1 160925Z 19001KT 10/10 A2986 RMK A01 T01020102  RH  100%=      5-min Rain = 0
KHO1 160926Z 19001KT 10/10 A2986 RMK A01 T01020102  RH  100%=      5-min Rain = 0
KHO1 160927Z 18002KT 10/10 A2986 RMK A01 T01020102  RH  100%=      5-min Rain = 0
KHO1 160928Z 18003KT 10/10 A2986 RMK A01 T01020102  RH  100%=      5-min Rain = 0
KHO1 160929Z 18002KT 10/10 A2986 RMK A01 T01020102  RH  100%=      5-min Rain = 0
KHO1 160930Z 20002KT 10/10 A2986 RMK A01 T01020102  RH  100%=      5-min Rain = 0
KHO1 160931Z 20001KT 10/10 A2986 RMK A01 T01020102  RH  100%=      5-min Rain = 0
KHO1 160932Z 20000KT 10/10 A2986 RMK A01 T01020102  RH  100%=      5-min Rain = 0
KHO1 160933Z 21000KT 10/10 A2986 RMK A01 T01020102  RH  100%=      5-min Rain = 0
KHO1 160934Z 01003KT 10/10 A2987 RMK A01 T01020102  RH  100%=      5-min Rain = 0
KHO1 160935Z 01007KT 10/10 A2987 RMK A01 T01020102  RH  100%=      5-min Rain = 0
KHO1 160936Z 01010KT 10/10 A2988 RMK A01 T01030103  RH  100%=      5-min Rain = 0
KHO1 160937Z 01011KT 10/10 A2988 RMK A01 T01030103  RH  100%=      5-min Rain = 0
KHO1 160938Z 01011KT 10/10 A2988 RMK A01 T01030103  RH  100%=      5-min Rain = 0
KHO1 160939Z 01011KT 10/10 A2988 RMK A01 T01030103  RH  100%=      5-min Rain = 0
KHO1 160940Z 02013KT 10/10 A2988 RMK A01 T01030103  RH  100%=      5-min Rain = 0
KHO1 160941Z 01012KT 10/10 A2988 RMK A01 T01020102  RH  100%=      5-min Rain = 0
KHO1 160942Z 01009KT 10/10 A2988 RMK A01 T01010101  RH  100%=      5-min Rain = 0
KHO1 160943Z 00005KT 10/10 A2987 RMK A01 T01010101  RH  100%=      5-min Rain = 0
KHO1 160944Z 00005KT 10/10 A2987 RMK A01 T01010101  RH  100%=      5-min Rain = 0
KHO1 160945Z 01007KT 10/10 A2988 RMK A01 T01010101  RH  100%=      5-min Rain = 0
KHO1 160946Z 01009KT 10/10 A2988 RMK A01 T01010101  RH  100%=      5-min Rain = 0
KHO1 160947Z 01013KT 10/10 A2989 RMK A01 T01010101  RH  100%=      5-min Rain = 0
KHO1 160948Z 01013KT 10/10 A2989 RMK A01 T01010101  RH  100%=      5-min Rain = 0
KHO1 160949Z 02011KT 10/10 A2989 RMK A01 T01010101  RH  100%=      5-min Rain = 0
KHO1 160950Z 02012KT 10/10 A2989 RMK A01 T01010101  RH  100%=      5-min Rain = 0
KHO1 160951Z 02012KT 10/10 A2989 RMK A01 T01000101  RH  100%=      5-min Rain = 0
KHO1 160952Z 01010KT 10/10 A2989 RMK A01 T01000100  RH  100%=      5-min Rain = 0
KHO1 160953Z 01008KT 10/10 A2989 RMK A01 T01000100  RH  100%=      5-min Rain = 0
KHO1 160954Z 00006KT 10/10 A2988 RMK A01 T01000100  RH  100%=      5-min Rain = 0
KHO1 160955Z 35004KT 10/10 A2988 RMK A01 T00990100  RH  100%=      5-min Rain = 0
KHO1 160956Z 00006KT 10/10 A2988 RMK A01 T00990099  RH  100%=      5-min Rain = 0
KHO1 160957Z 01008KT 10/10 A2988 RMK A01 T00990099  RH  100%=      5-min Rain = 0
KHO1 160958Z 01010KT 10/10 A2988 RMK A01 T00990099  RH  100%=      5-min Rain = 0
KHO1 160959Z 01010KT 10/10 A2989 RMK A01 T01000100  RH  100%=      5-min Rain = 0
KHO1 161000Z 02011KT 10/10 A2989 RMK A01 T01000100  RH  100%=      5-min Rain = 0
KHO1 161001Z 02009KT 10/10 A2989 RMK A01 T00990099  RH  100%=      5-min Rain = 0
KHO1 161002Z 02009KT 10/10 A2989 RMK A01 T01000100  RH  100%=      5-min Rain = 0
KHO1 161003Z 03009KT 10/10 A2988 RMK A01 T00990099  RH  100%=      5-min Rain = 0
KHO1 161004Z 02007KT 10/10 A2988 RMK A01 T00990099  RH  100%=      5-min Rain = 0
KHO1 161005Z 01005KT 10/10 A2988 RMK A01 T00980098  RH  100%=      5-min Rain = 0
KHO1 161006Z 01007KT 10/10 A2988 RMK A01 T00980098  RH  100%=      5-min Rain = 0
KHO1 161007Z 02008KT 10/10 A2988 RMK A01 T00980098  RH  100%=      5-min Rain = 0
KHO1 161008Z 02010KT 10/10 A2989 RMK A01 T00990099  RH  100%=      5-min Rain = 0
KHO1 161009Z 02010KT 10/10 A2989 RMK A01 T00980098  RH  100%=      5-min Rain = 0
KHO1 161010Z 02008KT 10/10 A2988 RMK A01 T00980098  RH  100%=      5-min Rain = 0
KHO1 161011Z 03006KT 10/10 A2988 RMK A01 T00980098  RH  100%=      5-min Rain = 0
KHO1 161012Z 02007KT 10/10 A2988 RMK A01 T00980098  RH  100%=      5-min Rain = 0
KHO1 161013Z 02007KT 10/10 A2988 RMK A01 T00980098  RH  100%=      5-min Rain = 0
KHO1 161014Z 01007KT 10/10 A2989 RMK A01 T00980098  RH  100%=      5-min Rain = 0
KHO1 161015Z 02006KT 10/10 A2989 RMK A01 T00980098  RH  100%=      5-min Rain = 0
KHO1 161016Z 02006KT 10/10 A2989 RMK A01 T00980098  RH  100%=      5-min Rain = 0
KHO1 161017Z 01008KT 10/10 A2988 RMK A01 T00980098  RH  100%=      5-min Rain = 0
KHO1 161018Z 02007KT 10/10 A2988 RMK A01 T00980098  RH  100%=      5-min Rain = 0
KHO1 161019Z 02005KT 10/10 A2989 RMK A01 T00980099  RH  100%=      5-min Rain = 0
KHO1 161020Z 03004KT 10/10 A2988 RMK A01 T00990099  RH  100%=      5-min Rain = 0
KHO1 161021Z 04004KT 10/10 A2988 RMK A01 T00990099  RH  100%=      5-min Rain = 0
KHO1 161022Z 06003KT 10/10 A2988 RMK A01 T00980098  RH  100%=      5-min Rain = 0
KHO1 161023Z 04006KT 10/10 A2988 RMK A01 T00980098  RH  100%=      5-min Rain = 0
KHO1 161024Z 05005KT 10/10 A2988 RMK A01 T00980098  RH  100%=      5-min Rain = 0
KHO1 161025Z 05004KT 10/10 A2988 RMK A01 T00980098  RH  100%=      5-min Rain = 0
KHO1 161026Z 06002KT 10/10 A2988 RMK A01 T00970097  RH  100%=      5-min Rain = 0
KHO1 161027Z 09002KT 10/10 A2987 RMK A01 T00970097  RH  100%=      5-min Rain = 0
KHO1 161028Z 09002KT 10/10 A2987 RMK A01 T00970097  RH  100%=      5-min Rain = 0
KHO1 161029Z 08002KT 10/10 A2987 RMK A01 T00970097  RH  100%=      5-min Rain = 0
KHO1 161030Z 07002KT 10/10 A2987 RMK A01 T00960096  RH  100%=      5-min Rain = 0
KHO1 161031Z 08002KT 10/10 A2987 RMK A01 T00960096  RH  100%=      5-min Rain = 0
KHO1 161032Z 08002KT 10/10 A2987 RMK A01 T00960096  RH  100%=      5-min Rain = 0
KHO1 161033Z 08002KT 10/10 A2987 RMK A01 T00950095  RH  100%=      5-min Rain = 0
KHO1 161034Z 08001KT 10/10 A2987 RMK A01 T00950095  RH  100%=      5-min Rain = 0
KHO1 161035Z 09001KT 09/09 A2987 RMK A01 T00940094  RH  100%=      5-min Rain = 0
KHO1 161036Z 09002KT 09/09 A2987 RMK A01 T00940094  RH  100%=      5-min Rain = 0
KHO1 161037Z 09002KT 09/09 A2987 RMK A01 T00940094  RH  100%=      5-min Rain = 0
KHO1 161038Z 09002KT 09/09 A2987 RMK A01 T00930094  RH  100%=      5-min Rain = 0
KHO1 161039Z 08002KT 09/09 A2987 RMK A01 T00930093  RH  100%=      5-min Rain = 0
KHO1 161040Z 08002KT 09/09 A2987 RMK A01 T00930093  RH  100%=      5-min Rain = 0
KHO1 161041Z 07003KT 09/09 A2987 RMK A01 T00920093  RH  100%=      5-min Rain = 0
KHO1 161042Z 07003KT 09/09 A2987 RMK A01 T00920092  RH  100%=      5-min Rain = 0
KHO1 161043Z 07003KT 09/09 A2987 RMK A01 T00920092  RH  100%=      5-min Rain = 0
KHO1 161044Z 07003KT 09/09 A2987 RMK A01 T00920093  RH  100%=      5-min Rain = 0
KHO1 161045Z 08002KT 09/09 A2987 RMK A01 T00930093  RH  100%=      5-min Rain = 0
KHO1 161046Z 07003KT 09/09 A2988 RMK A01 T00920093  RH  100%=      5-min Rain = 0
KHO1 161047Z 05003KT 09/09 A2988 RMK A01 T00920092  RH  100%=      5-min Rain = 0
KHO1 161048Z 05004KT 09/09 A2988 RMK A01 T00920092  RH  100%=      5-min Rain = 0
KHO1 161049Z 05004KT 09/09 A2988 RMK A01 T00920092  RH  100%=      5-min Rain = 0
KHO1 161050Z 04004KT 09/09 A2988 RMK A01 T00910091  RH  100%=      5-min Rain = 0
KHO1 161051Z 03005KT 09/09 A2988 RMK A01 T00910091  RH  100%=      5-min Rain = 0
KHO1 161052Z 04004KT 09/09 A2988 RMK A01 T00920092  RH  100%=      5-min Rain = 0
KHO1 161053Z 05003KT 09/09 A2988 RMK A01 T00910092  RH  100%=      5-min Rain = 0
KHO1 161054Z 04003KT 09/09 A2988 RMK A01 T00910091  RH  100%=      5-min Rain = 0
KHO1 161055Z 04003KT 09/09 A2988 RMK A01 T00910091  RH  100%=      5-min Rain = 0
KHO1 161056Z 05002KT 09/09 A2988 RMK A01 T00910091  RH  100%=      5-min Rain = 0
KHO1 161057Z 06001KT 09/09 A2988 RMK A01 T00910091  RH  100%=      5-min Rain = 0
KHO1 161058Z 05002KT 09/09 A2988 RMK A01 T00910091  RH  100%=      5-min Rain = 0
KHO1 161059Z 06002KT 09/09 A2988 RMK A01 T00910091  RH  100%=      5-min Rain = 0
KHO1 161100Z 07002KT 09/09 A2988 RMK A01 T00910091  RH  100%=      5-min Rain = 0
KHO1 161101Z 09001KT 09/09 A2988 RMK A01 T00910091  RH  100%=      5-min Rain = 0
KHO1 161102Z 11001KT 09/09 A2988 RMK A01 T00910091  RH  100%=      5-min Rain = 0
KHO1 161103Z 11002KT 09/09 A2988 RMK A01 T00910091  RH  100%=      5-min Rain = 0
KHO1 161104Z 13001KT 09/09 A2988 RMK A01 T00910091  RH  100%=      5-min Rain = 0
KHO1 161105Z 11001KT 09/09 A2988 RMK A01 T00910091  RH  100%=      5-min Rain = 0
KHO1 161106Z 11002KT 09/09 A2988 RMK A01 T00910091  RH  100%=      5-min Rain = 0
KHO1 161107Z 10001KT 09/09 A2988 RMK A01 T00900091  RH  100%=      5-min Rain = 0
KHO1 161108Z 08002KT 09/09 A2988 RMK A01 T00900090  RH  100%=      5-min Rain = 0
KHO1 161109Z 09002KT 09/09 A2988 RMK A01 T00900090  RH  100%=      5-min Rain = 0
KHO1 161110Z 07002KT 09/09 A2988 RMK A01 T00900090  RH  100%=      5-min Rain = 0
KHO1 161111Z 07002KT 09/09 A2988 RMK A01 T00890089  RH  100%=      5-min Rain = 0
KHO1 161112Z 07002KT 09/09 A2988 RMK A01 T00890089  RH  100%=      5-min Rain = 0
KHO1 161113Z 06002KT 09/09 A2988 RMK A01 T00890089  RH  100%=      5-min Rain = 0
KHO1 161114Z 06002KT 09/09 A2989 RMK A01 T00890089  RH  100%=      5-min Rain = 0
KHO1 161115Z 05002KT 09/09 A2989 RMK A01 T00900090  RH  100%=      5-min Rain = 0
KHO1 161116Z 05002KT 09/09 A2989 RMK A01 T00900090  RH  100%=      5-min Rain = 0
KHO1 161117Z 05002KT 09/09 A2989 RMK A01 T00900090  RH  100%=      5-min Rain = 0
KHO1 161118Z 04002KT 09/09 A2989 RMK A01 T00900090  RH  100%=      5-min Rain = 0
KHO1 161119Z 04003KT 09/09 A2989 RMK A01 T00900090  RH  100%=      5-min Rain = 0
KHO1 161120Z 05003KT 09/09 A2989 RMK A01 T00900091  RH  100%=      5-min Rain = 0
KHO1 161121Z 04004KT 09/09 A2989 RMK A01 T00910091  RH  100%=      5-min Rain = 0
KHO1 161122Z 04005KT 09/09 A2989 RMK A01 T00910091  RH  100%=      5-min Rain = 0
KHO1 161123Z 03005KT 09/09 A2989 RMK A01 T00910091  RH  100%=      5-min Rain = 0
KHO1 161124Z 04004KT 09/09 A2989 RMK A01 T00910091  RH  100%=      5-min Rain = 0
KHO1 161125Z 04003KT 09/09 A2989 RMK A01 T00900091  RH  100%=      5-min Rain = 0
KHO1 161126Z 04004KT 09/09 A2989 RMK A01 T00900090  RH  100%=      5-min Rain = 0
KHO1 161127Z 04005KT 09/09 A299 RMK A01 T00900090  RH  100%=      5-min Rain = 0
KHO1 161128Z 04006KT 09/09 A299 RMK A01 T00900090  RH  100%=      5-min Rain = 0
KHO1 161129Z 04006KT 09/09 A299 RMK A01 T00900090  RH  100%=      5-min Rain = 0
KHO1 161130Z 04005KT 09/09 A299 RMK A01 T00900090  RH  100%=      5-min Rain = 0
KHO1 161131Z 03004KT 09/09 A299 RMK A01 T00900090  RH  100%=      5-min Rain = 0
KHO1 161132Z 03005KT 09/09 A2989 RMK A01 T00900090  RH  100%=      5-min Rain = 0
KHO1 161133Z 03004KT 09/09 A2989 RMK A01 T00890090  RH  100%=      5-min Rain = 0
KHO1 161134Z 03005KT 09/09 A299 RMK A01 T00890089  RH  100%=      5-min Rain = 0
KHO1 161135Z 03006KT 09/09 A299 RMK A01 T00890089  RH  100%=      5-min Rain = 0
KHO1 161136Z 03007KT 09/09 A299 RMK A01 T00890089  RH  100%=      5-min Rain = 0
KHO1 161137Z 03007KT 09/09 A299 RMK A01 T00890089  RH  100%=      5-min Rain = 0
KHO1 161138Z 03006KT 09/09 A299 RMK A01 T00890089  RH  100%=      5-min Rain = 0
KHO1 161139Z 03007KT 09/09 A299 RMK A01 T00880089  RH  100%=      5-min Rain = 0
KHO1 161140Z 03006KT 09/09 A299 RMK A01 T00880088  RH  100%=      5-min Rain = 0
KHO1 161141Z 03005KT 09/09 A299 RMK A01 T00880088  RH  100%=      5-min Rain = 0
KHO1 161142Z 03006KT 09/09 A299 RMK A01 T00880088  RH  100%=      5-min Rain = 0
KHO1 161143Z 03005KT 09/09 A299 RMK A01 T00880088  RH  100%=      5-min Rain = 0
KHO1 161144Z 04005KT 09/09 A299 RMK A01 T00890089  RH  100%=      5-min Rain = 0
KHO1 161145Z 03005KT 09/09 A299 RMK A01 T00890089  RH  100%=      5-min Rain = 0
KHO1 161146Z 03005KT 09/09 A2989 RMK A01 T00890089  RH  100%=      5-min Rain = 0
KHO1 161147Z 03006KT 09/09 A299 RMK A01 T00890089  RH  100%=      5-min Rain = 0
KHO1 161148Z 03007KT 09/09 A2989 RMK A01 T00890089  RH  100%=      5-min Rain = 0
KHO1 161149Z 02007KT 09/09 A2989 RMK A01 T00880088  RH  100%=      5-min Rain = 0
KHO1 161150Z 03005KT 09/09 A2989 RMK A01 T00880088  RH  100%=      5-min Rain = 0
KHO1 161151Z 03007KT 09/09 A2989 RMK A01 T00880088  RH  100%=      5-min Rain = 0
KHO1 161152Z 03007KT 09/09 A2989 RMK A01 T00870087  RH  100%=      5-min Rain = 0
KHO1 161153Z 02006KT 09/09 A299 RMK A01 T00870087  RH  100%=      5-min Rain = 0
KHO1 161154Z 02004KT 09/09 A299 RMK A01 T00870087  RH  100%=      5-min Rain = 0
KHO1 161155Z 02005KT 09/09 A299 RMK A01 T00870087  RH  100%=      5-min Rain = 0
KHO1 161156Z 03006KT 09/09 A299 RMK A01 T00870087  RH  100%=      5-min Rain = 0
KHO1 161157Z 03006KT 09/09 A299 RMK A01 T00870087  RH  100%=      5-min Rain = 0
KHO1 161158Z 03005KT 09/09 A299 RMK A01 T00870087  RH  100%=      5-min Rain = 0
KHO1 161159Z 03005KT 09/09 A299 RMK A01 T00870087  RH  100%=      5-min Rain = 0
KHO1 161200Z 04005KT 09/09 A299 RMK A01 T00870087  RH  100%=      5-min Rain = 0
KHO1 161201Z 04005KT 09/09 A299 RMK A01 T00870087  RH  100%=      5-min Rain = 0
KHO1 161202Z 03004KT 09/09 A299 RMK A01 T00870087  RH  100%=      5-min Rain = 0
KHO1 161203Z 02006KT 09/09 A299 RMK A01 T00870087  RH  100%=      5-min Rain = 0
KHO1 161204Z 03006KT 09/09 A299 RMK A01 T00870087  RH  100%=      5-min Rain = 0
KHO1 161205Z 03005KT 09/09 A299 RMK A01 T00870087  RH  100%=      5-min Rain = 0
KHO1 161206Z 02005KT 09/09 A299 RMK A01 T00870087  RH  100%=      5-min Rain = 0
KHO1 161207Z 03006KT 09/09 A299 RMK A01 T00870087  RH  100%=      5-min Rain = 0
KHO1 161208Z 03005KT 09/09 A299 RMK A01 T00870087  RH  100%=      5-min Rain = 0
KHO1 161209Z 03006KT 09/09 A299 RMK A01 T00870087  RH  100%=      5-min Rain = 0
KHO1 161210Z 03007KT 09/09 A2991 RMK A01 T00870087  RH  100%=      5-min Rain = 0
KHO1 161211Z 03007KT 09/09 A2991 RMK A01 T00870088  RH  100%=      5-min Rain = 0
KHO1 161212Z 03008KT 09/09 A2991 RMK A01 T00870087  RH  100%=      5-min Rain = 0
KHO1 161213Z 03009KT 09/09 A2991 RMK A01 T00870087  RH  100%=      5-min Rain = 0
KHO1 161214Z 04008KT 09/09 A2991 RMK A01 T00870087  RH  100%=      5-min Rain = 0
KHO1 161215Z 04008KT 09/09 A2991 RMK A01 T00870087  RH  100%=      5-min Rain = 0
KHO1 161216Z 04008KT 09/09 A2991 RMK A01 T00870087  RH  100%=      5-min Rain = 0
KHO1 161217Z 03009KT 09/09 A2991 RMK A01 T00870087  RH  100%=      5-min Rain = 0
KHO1 161218Z 04007KT 09/09 A2991 RMK A01 T00870087  RH  100%=      5-min Rain = 0
KHO1 161219Z 04008KT 09/09 A2991 RMK A01 T00870087  RH  100%=      5-min Rain = 0
KHO1 161220Z 04009KT 09/09 A2991 RMK A01 T00870087  RH  100%=      5-min Rain = 0
KHO1 161221Z 04008KT 09/09 A2991 RMK A01 T00870087  RH  100%=      5-min Rain = 0
KHO1 161222Z 03007KT 09/09 A2991 RMK A01 T00870087  RH  100%=      5-min Rain = 0
KHO1 161223Z 03008KT 09/09 A2992 RMK A01 T00870087  RH  100%=      5-min Rain = 0
KHO1 161224Z 03009KT 09/09 A2992 RMK A01 T00870087  RH  100%=      5-min Rain = 0
KHO1 161225Z 04008KT 09/09 A2992 RMK A01 T00870087  RH  100%=      5-min Rain = 0
KHO1 161226Z 04010KT 09/09 A2992 RMK A01 T00870087  RH  100%=      5-min Rain = 0
KHO1 161227Z 04010KT 09/09 A2992 RMK A01 T00860086  RH  100%=      5-min Rain = 0
KHO1 161228Z 03010KT 09/09 A2992 RMK A01 T00860086  RH  100%=      5-min Rain = 0
KHO1 161229Z 04006KT 09/09 A2992 RMK A01 T00860086  RH  100%=      5-min Rain = 0
KHO1 161230Z 03008KT 09/09 A2992 RMK A01 T00860086  RH  100%=      5-min Rain = 0
KHO1 161231Z 03007KT 09/09 A2992 RMK A01 T00860086  RH  100%=      5-min Rain = 0
KHO1 161232Z 04006KT 09/09 A2992 RMK A01 T00860086  RH  100%=      5-min Rain = 0
KHO1 161233Z 04007KT 09/09 A2992 RMK A01 T00860086  RH  100%=      5-min Rain = 0
KHO1 161234Z 04008KT 09/09 A2992 RMK A01 T00860086  RH  100%=      5-min Rain = 0
KHO1 161235Z 04008KT 09/09 A2992 RMK A01 T00860086  RH  100%=      5-min Rain = 0
KHO1 161236Z 04007KT 09/09 A2992 RMK A01 T00860086  RH  100%=      5-min Rain = 0
KHO1 161237Z 04005KT 09/09 A2992 RMK A01 T00870087  RH  100%=      5-min Rain = 0
KHO1 161238Z 04006KT 09/09 A2992 RMK A01 T00870087  RH  100%=      5-min Rain = 0
KHO1 161239Z 04005KT 09/09 A2992 RMK A01 T00870087  RH  100%=      5-min Rain = 0
KHO1 161240Z 04005KT 09/09 A2992 RMK A01 T00870087  RH  100%=      5-min Rain = 0
KHO1 161241Z 04005KT 09/09 A2992 RMK A01 T00880088  RH  100%=      5-min Rain = 0
KHO1 161242Z 04007KT 09/09 A2992 RMK A01 T00880088  RH  100%=      5-min Rain = 0
KHO1 161243Z 04006KT 09/09 A2992 RMK A01 T00880088  RH  100%=      5-min Rain = 0
KHO1 161244Z 03007KT 09/09 A2992 RMK A01 T00880088  RH  100%=      5-min Rain = 0
KHO1 161245Z 04006KT 09/09 A2992 RMK A01 T00880088  RH  100%=      5-min Rain = 0
KHO1 161246Z 04006KT 09/09 A2992 RMK A01 T00880088  RH  100%=      5-min Rain = 0
KHO1 161247Z 04006KT 09/09 A2992 RMK A01 T00890089  RH  100%=      5-min Rain = 0
KHO1 161248Z 04006KT 09/09 A2992 RMK A01 T00890089  RH  100%=      5-min Rain = 0
KHO1 161249Z 04006KT 09/09 A2992 RMK A01 T00890089  RH  100%=      5-min Rain = 0
KHO1 161250Z 04006KT 09/09 A2992 RMK A01 T00890089  RH  100%=      5-min Rain = 0
KHO1 161251Z 04005KT 09/09 A2992 RMK A01 T00900090  RH  100%=      5-min Rain = 0.01
KHO1 161252Z 04006KT 09/09 A2992 RMK A01 T00900090  RH  100%=      5-min Rain = 0
KHO1 161253Z 03006KT 09/09 A2992 RMK A01 T00900090  RH  100%=      5-min Rain = 0
KHO1 161254Z 03006KT 09/09 A2992 RMK A01 T00900090  RH  100%=      5-min Rain = 0
KHO1 161255Z 03006KT 09/09 A2992 RMK A01 T00900090  RH  100%=      5-min Rain = 0
KHO1 161256Z 03005KT 09/09 A2992 RMK A01 T00910091  RH  100%=      5-min Rain = 0
KHO1 161257Z 03007KT 09/09 A2992 RMK A01 T00910091  RH  100%=      5-min Rain = 0
KHO1 161258Z 03007KT 09/09 A2992 RMK A01 T00910091  RH  100%=      5-min Rain = 0
KHO1 161259Z 03007KT 09/09 A2992 RMK A01 T00910091  RH  100%=      5-min Rain = 0
KHO1 161300Z 04007KT 09/09 A2992 RMK A01 T00920092  RH  100%=      5-min Rain = 0
KHO1 161301Z 03005KT 09/09 A2992 RMK A01 T00920092  RH  100%=      5-min Rain = 0
KHO1 161302Z 04005KT 09/09 A2992 RMK A01 T00920092  RH  100%=      5-min Rain = 0
KHO1 161303Z 04005KT 09/09 A2992 RMK A01 T00920092  RH  100%=      5-min Rain = 0
KHO1 161304Z 04004KT 09/09 A2992 RMK A01 T00920092  RH  100%=      5-min Rain = 0
KHO1 161305Z 03005KT 09/09 A2992 RMK A01 T00920092  RH  100%=      5-min Rain = 0
KHO1 161306Z 03005KT 09/09 A2992 RMK A01 T00920092  RH  100%=      5-min Rain = 0
KHO1 161307Z 03005KT 09/09 A2992 RMK A01 T00920092  RH  100%=      5-min Rain = 0
KHO1 161308Z 03006KT 09/09 A2992 RMK A01 T00920092  RH  100%=      5-min Rain = 0
KHO1 161309Z 04006KT 09/09 A2993 RMK A01 T00920092  RH  100%=      5-min Rain = 0
KHO1 161310Z 03005KT 09/09 A2992 RMK A01 T00920093  RH  100%=      5-min Rain = 0
KHO1 161311Z 03007KT 09/09 A2993 RMK A01 T00930093  RH  100%=      5-min Rain = 0
KHO1 161312Z 04006KT 09/09 A2993 RMK A01 T00930093  RH  100%=      5-min Rain = 0
KHO1 161313Z 03005KT 09/09 A2993 RMK A01 T00930093  RH  100%=      5-min Rain = 0
KHO1 161314Z 03005KT 09/09 A2993 RMK A01 T00930093  RH  100%=      5-min Rain = 0
KHO1 161315Z 04005KT 09/09 A2993 RMK A01 T00930093  RH  100%=      5-min Rain = 0
KHO1 161316Z 04005KT 09/09 A2993 RMK A01 T00930094  RH  100%=      5-min Rain = 0
KHO1 161317Z 04005KT 09/09 A2993 RMK A01 T00940094  RH  100%=      5-min Rain = 0
KHO1 161318Z 03004KT 09/09 A2993 RMK A01 T00940094  RH  100%=      5-min Rain = 0
KHO1 161319Z 03005KT 09/09 A2993 RMK A01 T00940094  RH  100%=      5-min Rain = 0
KHO1 161320Z 02005KT 09/09 A2993 RMK A01 T00940094  RH  100%=      5-min Rain = 0
KHO1 161321Z 03005KT 09/09 A2993 RMK A01 T00940094  RH  100%=      5-min Rain = 0
KHO1 161322Z 03005KT 09/09 A2993 RMK A01 T00940094  RH  100%=      5-min Rain = 0
KHO1 161323Z 03003KT 09/09 A2993 RMK A01 T00940094  RH  100%=      5-min Rain = 0
KHO1 161324Z 04004KT 10/10 A2993 RMK A01 T00950095  RH  100%=      5-min Rain = 0
KHO1 161325Z 03005KT 10/10 A2993 RMK A01 T00950095  RH  100%=      5-min Rain = 0
KHO1 161326Z 03005KT 09/09 A2993 RMK A01 T00940094  RH  100%=      5-min Rain = 0
KHO1 161327Z 04003KT 10/10 A2993 RMK A01 T00950095  RH  100%=      5-min Rain = 0
KHO1 161328Z 04004KT 10/10 A2993 RMK A01 T00960096  RH  100%=      5-min Rain = 0
KHO1 161329Z 04005KT 10/10 A2993 RMK A01 T00960096  RH  100%=      5-min Rain = 0
KHO1 161330Z 04004KT 10/10 A2993 RMK A01 T00950095  RH  100%=      5-min Rain = 0
KHO1 161331Z 04004KT 10/10 A2993 RMK A01 T00950095  RH  100%=      5-min Rain = 0
KHO1 161332Z 03003KT 10/10 A2993 RMK A01 T00950095  RH  100%=      5-min Rain = 0
KHO1 161333Z 03003KT 10/10 A2993 RMK A01 T00960096  RH  100%=      5-min Rain = 0
KHO1 161334Z 02003KT 10/10 A2993 RMK A01 T00960096  RH  100%=      5-min Rain = 0
KHO1 161335Z 02003KT 10/10 A2993 RMK A01 T00950095  RH  100%=      5-min Rain = 0
KHO1 161336Z 02004KT 10/10 A2993 RMK A01 T00950095  RH  100%=      5-min Rain = 0
KHO1 161337Z 03005KT 10/10 A2993 RMK A01 T00960096  RH  100%=      5-min Rain = 0
KHO1 161338Z 03004KT 10/10 A2993 RMK A01 T00950095  RH  100%=      5-min Rain = 0
KHO1 161339Z 03004KT 10/10 A2993 RMK A01 T00950095  RH  100%=      5-min Rain = 0
KHO1 161340Z 03004KT 10/10 A2993 RMK A01 T00950095  RH  100%=      5-min Rain = 0
KHO1 161341Z 02003KT 10/10 A2993 RMK A01 T00950095  RH  100%=      5-min Rain = 0
KHO1 161342Z 01003KT 10/10 A2994 RMK A01 T00960096  RH  100%=      5-min Rain = 0
KHO1 161343Z 01002KT 10/10 A2994 RMK A01 T00960097  RH  100%=      5-min Rain = 0
KHO1 161344Z 03003KT 10/10 A2994 RMK A01 T00970097  RH  100%=      5-min Rain = 0
KHO1 161345Z 02003KT 10/10 A2994 RMK A01 T00970097  RH  100%=      5-min Rain = 0
KHO1 161346Z 02002KT 10/10 A2994 RMK A01 T00970097  RH  100%=      5-min Rain = 0
KHO1 161347Z 02003KT 10/10 A2994 RMK A01 T00970097  RH  100%=      5-min Rain = 0
KHO1 161348Z 01002KT 10/10 A2994 RMK A01 T00970097  RH  100%=      5-min Rain = 0
KHO1 161349Z 35002KT 10/10 A2994 RMK A01 T00970097  RH  100%=      5-min Rain = 0
KHO1 161350Z 01001KT 10/10 A2994 RMK A01 T00970097  RH  100%=      5-min Rain = 0
KHO1 161351Z 03001KT 10/10 A2994 RMK A01 T00970097  RH  100%=      5-min Rain = 0
KHO1 161352Z 02002KT 10/10 A2994 RMK A01 T00970097  RH  100%=      5-min Rain = 0
KHO1 161353Z 00002KT 10/10 A2994 RMK A01 T00970097  RH  100%=      5-min Rain = 0
KHO1 161354Z 36002KT 10/10 A2994 RMK A01 T00970097  RH  100%=      5-min Rain = 0
KHO1 161355Z 01002KT 10/10 A2994 RMK A01 T00980098  RH  100%=      5-min Rain = 0
KHO1 161356Z 01003KT 10/10 A2994 RMK A01 T00990099  RH  100%=      5-min Rain = 0
KHO1 161357Z 01003KT 10/10 A2994 RMK A01 T00990099  RH  100%=      5-min Rain = 0
KHO1 161358Z 36003KT 10/10 A2994 RMK A01 T00970097  RH  100%=      5-min Rain = 0
KHO1 161359Z 35003KT 10/10 A2994 RMK A01 T00970097  RH  100%=      5-min Rain = 0
KHO1 161400Z 35004KT 10/10 A2994 RMK A01 T00970097  RH  100%=      5-min Rain = 0
KHO1 161401Z 36003KT 10/10 A2994 RMK A01 T00970097  RH  100%=      5-min Rain = 0
KHO1 161402Z 35002KT 10/10 A2994 RMK A01 T00970097  RH  100%=      5-min Rain = 0
KHO1 161403Z 35004KT 10/10 A2994 RMK A01 T00980098  RH  100%=      5-min Rain = 0
KHO1 161404Z 35004KT 10/10 A2994 RMK A01 T00980098  RH  100%=      5-min Rain = 0
KHO1 161405Z 36004KT 10/10 A2994 RMK A01 T00980099  RH  100%=      5-min Rain = 0
KHO1 161406Z 36005KT 10/10 A2994 RMK A01 T00980098  RH  100%=      5-min Rain = 0
KHO1 161407Z 35005KT 10/10 A2994 RMK A01 T00980098  RH  100%=      5-min Rain = 0
KHO1 161408Z 01004KT 10/10 A2994 RMK A01 T00970097  RH  100%=      5-min Rain = 0
KHO1 161409Z 00004KT 10/10 A2994 RMK A01 T00980098  RH  100%=      5-min Rain = 0
KHO1 161410Z 00004KT 10/10 A2994 RMK A01 T00980098  RH  100%=      5-min Rain = 0
KHO1 161411Z 00005KT 10/10 A2994 RMK A01 T00980098  RH  100%=      5-min Rain = 0
KHO1 161412Z 36004KT 10/10 A2994 RMK A01 T00980099  RH  100%=      5-min Rain = 0
KHO1 161413Z 36004KT 10/10 A2994 RMK A01 T00980098  RH  100%=      5-min Rain = 0
KHO1 161414Z 01004KT 10/10 A2994 RMK A01 T00980098  RH  100%=      5-min Rain = 0
KHO1 161415Z 01005KT 10/10 A2994 RMK A01 T01000100  RH  100%=      5-min Rain = 0
KHO1 161416Z 00005KT 10/10 A2994 RMK A01 T00990099  RH  100%=      5-min Rain = 0
KHO1 161417Z 36004KT 10/10 A2994 RMK A01 T01000100  RH  100%=      5-min Rain = 0
KHO1 161418Z 36004KT 10/10 A2994 RMK A01 T01000100  RH  100%=      5-min Rain = 0
KHO1 161419Z 35005KT 10/10 A2994 RMK A01 T01010101  RH  100%=      5-min Rain = 0
KHO1 161420Z 35006KT 10/10 A2994 RMK A01 T01010101  RH  100%=      5-min Rain = 0
KHO1 161421Z 36006KT 10/10 A2994 RMK A01 T01000100  RH  100%=      5-min Rain = 0
KHO1 161422Z 00006KT 10/10 A2994 RMK A01 T01000100  RH  100%=      5-min Rain = 0
KHO1 161423Z 00005KT 10/10 A2994 RMK A01 T01000100  RH  100%=      5-min Rain = 0
KHO1 161424Z 00005KT 10/10 A2994 RMK A01 T01010101  RH  100%=      5-min Rain = 0
KHO1 161425Z 36006KT 10/10 A2994 RMK A01 T01010101  RH  100%=      5-min Rain = 0
KHO1 161426Z 35007KT 10/10 A2994 RMK A01 T01000100  RH  100%=      5-min Rain = 0
KHO1 161427Z 35006KT 10/10 A2994 RMK A01 T01000100  RH  100%=      5-min Rain = 0
KHO1 161428Z 00006KT 10/10 A2994 RMK A01 T00990099  RH  100%=      5-min Rain = 0
KHO1 161429Z 00005KT 10/10 A2994 RMK A01 T01000100  RH  100%=      5-min Rain = 0
KHO1 161430Z 36004KT 10/10 A2994 RMK A01 T01010101  RH  100%=      5-min Rain = 0
KHO1 161431Z 35005KT 10/10 A2994 RMK A01 T01020102  RH  100%=      5-min Rain = 0
KHO1 161432Z 35004KT 10/10 A2994 RMK A01 T01020102  RH  100%=      5-min Rain = 0
KHO1 161433Z 36005KT 10/10 A2994 RMK A01 T01020102  RH  100%=      5-min Rain = 0
KHO1 161434Z 35005KT 10/10 A2994 RMK A01 T01010101  RH  100%=      5-min Rain = 0
KHO1 161435Z 35005KT 10/10 A2994 RMK A01 T01020102  RH  100%=      5-min Rain = 0
KHO1 161436Z 35007KT 10/10 A2994 RMK A01 T01020102  RH  100%=      5-min Rain = 0
KHO1 161437Z 35005KT 10/10 A2994 RMK A01 T01020102  RH  100%=      5-min Rain = 0
KHO1 161438Z 35004KT 10/10 A2994 RMK A01 T01030103  RH  100%=      5-min Rain = 0
KHO1 161439Z 36004KT 11/11 A2994 RMK A01 T01050105  RH  100%=      5-min Rain = 0
KHO1 161440Z 35006KT 10/10 A2994 RMK A01 T01040104  RH  100%=      5-min Rain = 0
KHO1 161441Z 00006KT 10/10 A2994 RMK A01 T01030103  RH  100%=      5-min Rain = 0
KHO1 161442Z 36005KT 10/10 A2994 RMK A01 T01020102  RH  100%=      5-min Rain = 0
KHO1 161443Z 35004KT 10/10 A2994 RMK A01 T01040104  RH  100%=      5-min Rain = 0
KHO1 161444Z 35005KT 11/11 A2994 RMK A01 T01050105  RH  100%=      5-min Rain = 0
KHO1 161445Z 35005KT 10/10 A2994 RMK A01 T01040104  RH  100%=      5-min Rain = 0
KHO1 161446Z 00005KT 10/11 A2994 RMK A01 T01040105  RH  100%=      5-min Rain = 0
KHO1 161447Z 00006KT 11/11 A2994 RMK A01 T01050105  RH  100%=      5-min Rain = 0
KHO1 161448Z 00006KT 11/11 A2995 RMK A01 T01060106  RH  100%=      5-min Rain = 0
KHO1 161449Z 00008KT 11/11 A2995 RMK A01 T01050105  RH  100%=      5-min Rain = 0
KHO1 161450Z 01007KT 11/11 A2995 RMK A01 T01050105  RH  100%=      5-min Rain = 0
KHO1 161451Z 01008KT 11/11 A2995 RMK A01 T01060106  RH  100%=      5-min Rain = 0
KHO1 161452Z 01010KT 11/11 A2995 RMK A01 T01050105  RH  100%=      5-min Rain = 0
KHO1 161453Z 01010KT 10/10 A2995 RMK A01 T01040103  RH  099%=      5-min Rain = 0
KHO1 161454Z 02009KT 10/10 A2995 RMK A01 T01040103  RH  099%=      5-min Rain = 0
KHO1 161455Z 01009KT 10/10 A2995 RMK A01 T01040103  RH  099%=      5-min Rain = 0
KHO1 161456Z 00008KT 10/10 A2995 RMK A01 T01040101  RH  098%=      5-min Rain = 0
KHO1 161457Z 36007KT 10/10 A2995 RMK A01 T01040101  RH  098%=      5-min Rain = 0
KHO1 161458Z 01008KT 11/10 A2995 RMK A01 T01050101  RH  098%=      5-min Rain = 0
KHO1 161459Z 01010KT 11/10 A2996 RMK A01 T01060102  RH  098%=      5-min Rain = 0
KHO1 161500Z 01010KT 11/10 A2996 RMK A01 T01050101  RH  097%=      5-min Rain = 0
KHO1 161501Z 00010KT 11/10 A2996 RMK A01 T01050100  RH  097%=      5-min Rain = 0
KHO1 161502Z 01011KT 11/10 A2996 RMK A01 T01050101  RH  097%=      5-min Rain = 0
KHO1 161503Z 01009KT 10/10 A2996 RMK A01 T01040099  RH  097%=      5-min Rain = 0
KHO1 161504Z 00009KT 11/10 A2996 RMK A01 T01050100  RH  097%=      5-min Rain = 0
KHO1 161505Z 00009KT 11/10 A2996 RMK A01 T01050100  RH  097%=      5-min Rain = 0
KHO1 161506Z 01009KT 10/10 A2996 RMK A01 T01040097  RH  096%=      5-min Rain = 0
KHO1 161507Z 01010KT 10/10 A2996 RMK A01 T01040098  RH  096%=      5-min Rain = 0
KHO1 161508Z 01009KT 11/10 A2996 RMK A01 T01050099  RH  096%=      5-min Rain = 0
KHO1 161509Z 00010KT 11/10 A2996 RMK A01 T01050099  RH  096%=      5-min Rain = 0
KHO1 161510Z 01009KT 10/10 A2996 RMK A01 T01040098  RH  096%=      5-min Rain = 0
KHO1 161511Z 02011KT 11/10 A2996 RMK A01 T01050100  RH  097%=      5-min Rain = 0
KHO1 161512Z 02011KT 11/10 A2996 RMK A01 T01050099  RH  096%=      5-min Rain = 0
KHO1 161513Z 02010KT 11/10 A2996 RMK A01 T01050099  RH  096%=      5-min Rain = 0
KHO1 161514Z 01009KT 11/10 A2996 RMK A01 T01050100  RH  096%=      5-min Rain = 0
KHO1 161515Z 00008KT 11/10 A2996 RMK A01 T01050098  RH  096%=      5-min Rain = 0
KHO1 161516Z 35007KT 10/10 A2996 RMK A01 T01040098  RH  096%=      5-min Rain = 0
KHO1 161517Z 01005KT 10/10 A2996 RMK A01 T01040098  RH  096%=      5-min Rain = 0
KHO1 161518Z 35007KT 11/10 A2996 RMK A01 T01050100  RH  097%=      5-min Rain = 0
KHO1 161519Z 35009KT 10/10 A2996 RMK A01 T01040096  RH  095%=      5-min Rain = 0
KHO1 161520Z 00008KT 10/09 A2996 RMK A01 T01020094  RH  094%=      5-min Rain = 0
KHO1 161521Z 00008KT 10/10 A2996 RMK A01 T01030095  RH  095%=      5-min Rain = 0
KHO1 161522Z 36009KT 10/10 A2997 RMK A01 T01030096  RH  095%=      5-min Rain = 0
KHO1 161523Z 01009KT 10/10 A2997 RMK A01 T01030096  RH  095%=      5-min Rain = 0
KHO1 161524Z 01008KT 10/10 A2997 RMK A01 T01030095  RH  095%=      5-min Rain = 0
KHO1 161525Z 01006KT 10/10 A2996 RMK A01 T01030096  RH  095%=      5-min Rain = 0
KHO1 161526Z 02007KT 10/10 A2996 RMK A01 T01030096  RH  095%=      5-min Rain = 0
KHO1 161527Z 01008KT 10/10 A2996 RMK A01 T01040097  RH  095%=      5-min Rain = 0
KHO1 161528Z 01007KT 10/10 A2996 RMK A01 T01040096  RH  095%=      5-min Rain = 0
KHO1 161529Z 01006KT 10/10 A2996 RMK A01 T01040096  RH  095%=      5-min Rain = 0
KHO1 161530Z 01007KT 11/10 A2996 RMK A01 T01050097  RH  095%=      5-min Rain = 0
KHO1 161531Z 02008KT 11/10 A2996 RMK A01 T01060099  RH  095%=      5-min Rain = 0
KHO1 161532Z 02008KT 11/10 A2997 RMK A01 T01070098  RH  095%=      5-min Rain = 0
KHO1 161533Z 01008KT 11/10 A2997 RMK A01 T01080100  RH  095%=      5-min Rain = 0
KHO1 161534Z 36007KT 11/10 A2996 RMK A01 T01070097  RH  094%=      5-min Rain = 0
KHO1 161535Z 34006KT 11/10 A2996 RMK A01 T01070097  RH  093%=      5-min Rain = 0
KHO1 161536Z 34006KT 11/10 A2996 RMK A01 T01080098  RH  094%=      5-min Rain = 0
KHO1 161537Z 34006KT 11/10 A2996 RMK A01 T01080097  RH  093%=      5-min Rain = 0
KHO1 161538Z 36007KT 11/10 A2996 RMK A01 T01080097  RH  093%=      5-min Rain = 0
KHO1 161539Z 36005KT 11/10 A2996 RMK A01 T01080096  RH  092%=      5-min Rain = 0
KHO1 161540Z 01006KT 11/10 A2996 RMK A01 T01100099  RH  093%=      5-min Rain = 0
KHO1 161541Z 00007KT 11/10 A2996 RMK A01 T01100097  RH  092%=      5-min Rain = 0
KHO1 161542Z 01007KT 11/10 A2996 RMK A01 T01100096  RH  091%=      5-min Rain = 0
KHO1 161543Z 01008KT 11/10 A2996 RMK A01 T01100096  RH  091%=      5-min Rain = 0
KHO1 161544Z 36008KT 11/10 A2996 RMK A01 T01110095  RH  090%=      5-min Rain = 0
KHO1 161545Z 36006KT 11/10 A2996 RMK A01 T01120096  RH  090%=      5-min Rain = 0
KHO1 161546Z 00008KT 11/10 A2996 RMK A01 T01120095  RH  089%=      5-min Rain = 0
KHO1 161547Z 00008KT 11/09 A2996 RMK A01 T01120092  RH  087%=      5-min Rain = 0
KHO1 161548Z 00007KT 11/09 A2996 RMK A01 T01120090  RH  086%=      5-min Rain = 0
KHO1 161549Z 00008KT 11/09 A2996 RMK A01 T01110090  RH  087%=      5-min Rain = 0
KHO1 161550Z 00007KT 11/09 A2996 RMK A01 T01110090  RH  087%=      5-min Rain = 0
KHO1 161551Z 35008KT 11/09 A2996 RMK A01 T01110090  RH  087%=      5-min Rain = 0
KHO1 161552Z 36007KT 11/09 A2996 RMK A01 T01110092  RH  088%=      5-min Rain = 0
KHO1 161553Z 00007KT 11/09 A2996 RMK A01 T01120094  RH  089%=      5-min Rain = 0
KHO1 161554Z 00007KT 11/09 A2996 RMK A01 T01120092  RH  087%=      5-min Rain = 0
KHO1 161555Z 01008KT 11/09 A2996 RMK A01 T01130094  RH  088%=      5-min Rain = 0
KHO1 161556Z 01008KT 12/10 A2996 RMK A01 T01150097  RH  089%=      5-min Rain = 0
KHO1 161557Z 01010KT 12/09 A2996 RMK A01 T01150092  RH  085%=      5-min Rain = 0
KHO1 161558Z 01007KT 12/09 A2996 RMK A01 T01150091  RH  086%=      5-min Rain = 0
KHO1 161559Z 35006KT 12/09 A2996 RMK A01 T01150093  RH  086%=      5-min Rain = 0
KHO1 161600Z 35008KT 12/10 A2996 RMK A01 T01160095  RH  087%=      5-min Rain = 0
KHO1 161601Z 35006KT 12/09 A2996 RMK A01 T01160092  RH  085%=      5-min Rain = 0
KHO1 161602Z 35007KT 12/10 A2996 RMK A01 T01170095  RH  087%=      5-min Rain = 0
KHO1 161603Z 34006KT 12/09 A2996 RMK A01 T01160093  RH  086%=      5-min Rain = 0
KHO1 161604Z 35007KT 12/10 A2996 RMK A01 T01160095  RH  087%=      5-min Rain = 0
KHO1 161605Z 00007KT 12/09 A2996 RMK A01 T01160094  RH  086%=      5-min Rain = 0
KHO1 161606Z 35006KT 12/09 A2997 RMK A01 T01170094  RH  086%=      5-min Rain = 0
KHO1 161607Z 35007KT 12/09 A2997 RMK A01 T01170093  RH  085%=      5-min Rain = 0
KHO1 161608Z 01007KT 12/09 A2997 RMK A01 T01180091  RH  084%=      5-min Rain = 0
KHO1 161609Z 02009KT 12/09 A2997 RMK A01 T01180090  RH  083%=      5-min Rain = 0
KHO1 161610Z 02007KT 12/09 A2997 RMK A01 T01180088  RH  082%=      5-min Rain = 0
KHO1 161611Z 02006KT 12/09 A2997 RMK A01 T01190090  RH  083%=      5-min Rain = 0
KHO1 161612Z 02006KT 12/09 A2997 RMK A01 T01200092  RH  083%=      5-min Rain = 0
KHO1 161613Z 02006KT 12/09 A2997 RMK A01 T01210092  RH  083%=      5-min Rain = 0
KHO1 161614Z 01006KT 12/10 A2997 RMK A01 T01220097  RH  085%=      5-min Rain = 0
KHO1 161615Z 35007KT 12/09 A2997 RMK A01 T01220090  RH  081%=      5-min Rain = 0
KHO1 161616Z 00007KT 12/09 A2997 RMK A01 T01200085  RH  079%=      5-min Rain = 0
KHO1 161617Z 35008KT 12/09 A2997 RMK A01 T01200088  RH  080%=      5-min Rain = 0
KHO1 161618Z 36007KT 12/09 A2997 RMK A01 T01220093  RH  083%=      5-min Rain = 0
KHO1 161619Z 36008KT 12/09 A2997 RMK A01 T01220090  RH  081%=      5-min Rain = 0
KHO1 161620Z 01007KT 12/09 A2998 RMK A01 T01230091  RH  081%=      5-min Rain = 0
KHO1 161621Z 01006KT 12/09 A2997 RMK A01 T01240094  RH  082%=      5-min Rain = 0
KHO1 161622Z 35006KT 13/09 A2998 RMK A01 T01250093  RH  081%=      5-min Rain = 0
KHO1 161623Z 35006KT 12/09 A2997 RMK A01 T01240086  RH  077%=      5-min Rain = 0
KHO1 161624Z 00007KT 12/09 A2997 RMK A01 T01230087  RH  079%=      5-min Rain = 0
KHO1 161625Z 36006KT 12/09 A2997 RMK A01 T01220091  RH  081%=      5-min Rain = 0
KHO1 161626Z 03006KT 12/10 A2997 RMK A01 T01240095  RH  083%=      5-min Rain = 0
KHO1 161627Z 02009KT 13/09 A2997 RMK A01 T01250094  RH  081%=      5-min Rain = 0
KHO1 161628Z 00006KT 13/10 A2997 RMK A01 T01270095  RH  081%=      5-min Rain = 0
KHO1 161629Z 01007KT 13/09 A2997 RMK A01 T01260092  RH  079%=      5-min Rain = 0
KHO1 161630Z 02006KT 13/09 A2997 RMK A01 T01250089  RH  079%=      5-min Rain = 0
KHO1 161631Z 03006KT 13/09 A2997 RMK A01 T01260094  RH  081%=      5-min Rain = 0
KHO1 161632Z 03008KT 13/09 A2997 RMK A01 T01270089  RH  077%=      5-min Rain = 0
KHO1 161633Z 00007KT 13/10 A2997 RMK A01 T01290095  RH  080%=      5-min Rain = 0
KHO1 161634Z 36008KT 13/09 A2997 RMK A01 T01300090  RH  076%=      5-min Rain = 0
KHO1 161635Z 01006KT 13/09 A2997 RMK A01 T01290086  RH  075%=      5-min Rain = 0
KHO1 161636Z 01005KT 13/09 A2997 RMK A01 T01280089  RH  077%=      5-min Rain = 0
KHO1 161637Z 00009KT 13/09 A2997 RMK A01 T01280086  RH  076%=      5-min Rain = 0
KHO1 161638Z 35008KT 13/08 A2997 RMK A01 T01260083  RH  075%=      5-min Rain = 0
KHO1 161639Z 36007KT 13/09 A2997 RMK A01 T01250087  RH  078%=      5-min Rain = 0
KHO1 161640Z 00009KT 13/09 A2997 RMK A01 T01250093  RH  080%=      5-min Rain = 0
KHO1 161641Z 01007KT 13/09 A2997 RMK A01 T01260089  RH  078%=      5-min Rain = 0
KHO1 161642Z 02006KT 13/09 A2997 RMK A01 T01260090  RH  078%=      5-min Rain = 0
KHO1 161643Z 03006KT 13/09 A2997 RMK A01 T01270091  RH  079%=      5-min Rain = 0
KHO1 161644Z 03008KT 13/09 A2997 RMK A01 T01280090  RH  077%=      5-min Rain = 0
KHO1 161645Z 36008KT 13/08 A2997 RMK A01 T01300084  RH  074%=      5-min Rain = 0
KHO1 161646Z 02007KT 13/08 A2997 RMK A01 T01290084  RH  074%=      5-min Rain = 0
KHO1 161647Z 02008KT 13/08 A2997 RMK A01 T01300082  RH  073%=      5-min Rain = 0
KHO1 161648Z 03008KT 13/09 A2997 RMK A01 T01300086  RH  075%=      5-min Rain = 0
KHO1 161649Z 04008KT 13/09 A2997 RMK A01 T01310088  RH  075%=      5-min Rain = 0
KHO1 161650Z 03008KT 13/09 A2997 RMK A01 T01320087  RH  074%=      5-min Rain = 0
KHO1 161651Z 04010KT 13/09 A2997 RMK A01 T01320085  RH  073%=      5-min Rain = 0
KHO1 161652Z 04007KT 13/09 A2997 RMK A01 T01310085  RH  073%=      5-min Rain = 0
KHO1 161653Z 04004KT 13/09 A2997 RMK A01 T01320088  RH  075%=      5-min Rain = 0
KHO1 161654Z 05005KT 13/09 A2997 RMK A01 T01330087  RH  074%=      5-min Rain = 0
KHO1 161655Z 03006KT 13/09 A2997 RMK A01 T01330086  RH  073%=      5-min Rain = 0
KHO1 161656Z 02005KT 13/09 A2997 RMK A01 T01310086  RH  074%=      5-min Rain = 0
KHO1 161657Z 01004KT 13/09 A2997 RMK A01 T01320086  RH  074%=      5-min Rain = 0
KHO1 161658Z 01004KT 13/09 A2997 RMK A01 T01310086  RH  074%=      5-min Rain = 0
KHO1 161659Z 01004KT 13/09 A2997 RMK A01 T01320087  RH  074%=      5-min Rain = 0
KHO1 161700Z 03005KT 13/09 A2997 RMK A01 T01320092  RH  076%=      5-min Rain = 0
KHO1 161701Z 03005KT 14/09 A2997 RMK A01 T01350089  RH  074%=      5-min Rain = 0
KHO1 161702Z 02005KT 14/09 A2997 RMK A01 T01360087  RH  072%=      5-min Rain = 0
KHO1 161703Z 01004KT 14/09 A2997 RMK A01 T01360085  RH  071%=      5-min Rain = 0
KHO1 161704Z 02006KT 14/09 A2997 RMK A01 T01370087  RH  072%=      5-min Rain = 0
KHO1 161705Z 03005KT 14/08 A2997 RMK A01 T01360084  RH  070%=      5-min Rain = 0
KHO1 161706Z 02003KT 14/09 A2997 RMK A01 T01370085  RH  071%=      5-min Rain = 0
KHO1 161707Z 03004KT 14/09 A2997 RMK A01 T01380086  RH  071%=      5-min Rain = 0
KHO1 161708Z 03004KT 14/09 A2997 RMK A01 T01400085  RH  069%=      5-min Rain = 0
KHO1 161709Z 05003KT 14/09 A2997 RMK A01 T01390085  RH  070%=      5-min Rain = 0
KHO1 161710Z 05006KT 14/09 A2997 RMK A01 T01400086  RH  070%=      5-min Rain = 0
KHO1 161711Z 05005KT 14/09 A2997 RMK A01 T01410085  RH  069%=      5-min Rain = 0
KHO1 161712Z 05006KT 14/08 A2997 RMK A01 T01420084  RH  068%=      5-min Rain = 0
KHO1 161713Z 06005KT 14/09 A2997 RMK A01 T01420085  RH  069%=      5-min Rain = 0
KHO1 161714Z 04006KT 14/08 A2997 RMK A01 T01430084  RH  068%=      5-min Rain = 0
KHO1 161715Z 03005KT 14/08 A2997 RMK A01 T01440083  RH  067%=      5-min Rain = 0
KHO1 161716Z 02003KT 14/08 A2997 RMK A01 T01440081  RH  066%=      5-min Rain = 0
KHO1 161717Z 01001KT 14/08 A2997 RMK A01 T01430081  RH  066%=      5-min Rain = 0
KHO1 161718Z 04001KT 14/08 A2997 RMK A01 T01440081  RH  066%=      5-min Rain = 0
KHO1 161719Z 01003KT 15/08 A2997 RMK A01 T01450081  RH  065%=      5-min Rain = 0
KHO1 161720Z 02005KT 15/08 A2997 RMK A01 T01450081  RH  065%=      5-min Rain = 0
KHO1 161721Z 00006KT 15/08 A2997 RMK A01 T01460082  RH  066%=      5-min Rain = 0
KHO1 161722Z 34004KT 15/08 A2997 RMK A01 T01460081  RH  065%=      5-min Rain = 0
KHO1 161723Z 02005KT 15/08 A2997 RMK A01 T01470081  RH  064%=      5-min Rain = 0
KHO1 161724Z 03005KT 15/08 A2997 RMK A01 T01470081  RH  064%=      5-min Rain = 0
KHO1 161725Z 03005KT 15/08 A2997 RMK A01 T01470082  RH  065%=      5-min Rain = 0
KHO1 161726Z 02005KT 15/08 A2997 RMK A01 T01470084  RH  066%=      5-min Rain = 0
KHO1 161727Z 01006KT 15/08 A2997 RMK A01 T01480080  RH  064%=      5-min Rain = 0
KHO1 161728Z 01005KT 15/08 A2997 RMK A01 T01470077  RH  063%=      5-min Rain = 0
KHO1 161729Z 02005KT 15/08 A2997 RMK A01 T01460076  RH  063%=      5-min Rain = 0
KHO1 161730Z 02005KT 15/08 A2997 RMK A01 T01460077  RH  064%=      5-min Rain = 0
KHO1 161731Z 02004KT 15/08 A2997 RMK A01 T01470080  RH  064%=      5-min Rain = 0
KHO1 161732Z 35006KT 15/08 A2997 RMK A01 T01490076  RH  062%=      5-min Rain = 0
KHO1 161733Z 02006KT 15/07 A2997 RMK A01 T01490071  RH  059%=      5-min Rain = 0
KHO1 161734Z 04005KT 15/07 A2997 RMK A01 T01480069  RH  059%=      5-min Rain = 0
KHO1 161735Z 01005KT 15/07 A2997 RMK A01 T01500072  RH  060%=      5-min Rain = 0
KHO1 161736Z 03006KT 15/08 A2997 RMK A01 T01520076  RH  061%=      5-min Rain = 0
KHO1 161737Z 04007KT 16/08 A2997 RMK A01 T01550079  RH  060%=      5-min Rain = 0
KHO1 161738Z 04007KT 16/08 A2997 RMK A01 T01570078  RH  060%=      5-min Rain = 0
KHO1 161739Z 02008KT 16/07 A2997 RMK A01 T01550073  RH  058%=      5-min Rain = 0
KHO1 161740Z 02005KT 15/08 A2997 RMK A01 T01540075  RH  059%=      5-min Rain = 0
KHO1 161741Z 03005KT 16/08 A2997 RMK A01 T01550075  RH  059%=      5-min Rain = 0
KHO1 161742Z 00007KT 16/07 A2997 RMK A01 T01560074  RH  058%=      5-min Rain = 0
KHO1 161743Z 01008KT 16/08 A2997 RMK A01 T01560075  RH  059%=      5-min Rain = 0
KHO1 161744Z 03007KT 16/08 A2997 RMK A01 T01550076  RH  059%=      5-min Rain = 0
KHO1 161745Z 05006KT 16/08 A2997 RMK A01 T01570076  RH  059%=      5-min Rain = 0
KHO1 161746Z 05006KT 16/08 A2997 RMK A01 T01580075  RH  058%=      5-min Rain = 0
KHO1 161747Z 05006KT 16/08 A2997 RMK A01 T01590075  RH  057%=      5-min Rain = 0
KHO1 161748Z 05007G13KT 16/07 A2997 RMK A01 T01590074  RH  057%=      5-min Rain = 0
KHO1 161749Z 02008KT 16/08 A2997 RMK A01 T01590076  RH  058%=      5-min Rain = 0
KHO1 161750Z 02011KT 16/07 A2997 RMK A01 T01590073  RH  057%=      5-min Rain = 0
KHO1 161751Z 02008KT 16/07 A2997 RMK A01 T01570074  RH  058%=      5-min Rain = 0
KHO1 161752Z 04006KT 16/07 A2997 RMK A01 T01570074  RH  058%=      5-min Rain = 0
KHO1 161753Z 04009KT 16/07 A2997 RMK A01 T01580073  RH  057%=      5-min Rain = 0
KHO1 161754Z 02008KT 16/07 A2997 RMK A01 T01570073  RH  057%=      5-min Rain = 0
KHO1 161755Z 02007KT 16/07 A2997 RMK A01 T01570072  RH  057%=      5-min Rain = 0
KHO1 161756Z 03008KT 16/07 A2997 RMK A01 T01570072  RH  057%=      5-min Rain = 0
KHO1 161757Z 03009KT 16/07 A2997 RMK A01 T01580072  RH  057%=      5-min Rain = 0
KHO1 161758Z 02011KT 16/07 A2997 RMK A01 T01580070  RH  056%=      5-min Rain = 0
KHO1 161759Z 02008KT 16/07 A2997 RMK A01 T01560070  RH  056%=      5-min Rain = 0
KHO1 161800Z 01008KT 16/07 A2997 RMK A01 T01580072  RH  057%=      5-min Rain = 0
KHO1 161801Z 01009KT 16/07 A2997 RMK A01 T01590071  RH  056%=      5-min Rain = 0
KHO1 161802Z 02008KT 16/07 A2997 RMK A01 T01590070  RH  056%=      5-min Rain = 0
KHO1 161803Z 02009KT 16/07 A2997 RMK A01 T01580072  RH  057%=      5-min Rain = 0
KHO1 161804Z 04010KT 16/08 A2997 RMK A01 T01610075  RH  057%=      5-min Rain = 0
KHO1 161805Z 04010KT 16/07 A2997 RMK A01 T01630070  RH  054%=      5-min Rain = 0
KHO1 161806Z 05008KT 17/07 A2997 RMK A01 T01650070  RH  053%=      5-min Rain = 0
KHO1 161807Z 01008KT 17/07 A2997 RMK A01 T01650069  RH  053%=      5-min Rain = 0
KHO1 161808Z 01008KT 16/07 A2997 RMK A01 T01630069  RH  054%=      5-min Rain = 0
KHO1 161809Z 00008KT 16/07 A2997 RMK A01 T01620068  RH  054%=      5-min Rain = 0
KHO1 161810Z 01009KT 16/07 A2997 RMK A01 T01610069  RH  054%=      5-min Rain = 0
KHO1 161811Z 01008KT 16/07 A2997 RMK A01 T01590070  RH  056%=      5-min Rain = 0
KHO1 161812Z 04009KT 16/07 A2997 RMK A01 T01590069  RH  055%=      5-min Rain = 0
KHO1 161813Z 05008KT 16/07 A2997 RMK A01 T01600069  RH  055%=      5-min Rain = 0
KHO1 161814Z 03007KT 16/07 A2997 RMK A01 T01610070  RH  055%=      5-min Rain = 0
KHO1 161815Z 02007KT 16/07 A2997 RMK A01 T01610072  RH  055%=      5-min Rain = 0
KHO1 161816Z 02006KT 16/07 A2997 RMK A01 T01600072  RH  056%=      5-min Rain = 0
KHO1 161817Z 03007KT 16/07 A2998 RMK A01 T01610074  RH  056%=      5-min Rain = 0
KHO1 161818Z 02010KT 16/07 A2998 RMK A01 T01630073  RH  055%=      5-min Rain = 0
KHO1 161819Z 03011KT 16/07 A2998 RMK A01 T01610071  RH  055%=      5-min Rain = 0
KHO1 161820Z 03007KT 16/07 A2998 RMK A01 T01590071  RH  056%=      5-min Rain = 0
KHO1 161821Z 04009G15KT 16/08 A2998 RMK A01 T01600076  RH  057%=      5-min Rain = 0
KHO1 161822Z 05010KT 16/08 A2998 RMK A01 T01620077  RH  057%=      5-min Rain = 0
KHO1 161823Z 07007KT 16/08 A2998 RMK A01 T01610078  RH  058%=      5-min Rain = 0
KHO1 161824Z 08006KT 16/08 A2998 RMK A01 T01620080  RH  058%=      5-min Rain = 0
KHO1 161825Z 07004KT 16/08 A2998 RMK A01 T01630079  RH  058%=      5-min Rain = 0
KHO1 161826Z 05008KT 16/08 A2998 RMK A01 T01630079  RH  057%=      5-min Rain = 0
KHO1 161827Z 04009KT 16/08 A2997 RMK A01 T01630079  RH  058%=      5-min Rain = 0
KHO1 161828Z 03012KT 16/08 A2997 RMK A01 T01610075  RH  057%=      5-min Rain = 0
KHO1 161829Z 05010KT 16/08 A2997 RMK A01 T01590077  RH  058%=      5-min Rain = 0
KHO1 161830Z 06009KT 16/08 A2997 RMK A01 T01590076  RH  058%=      5-min Rain = 0
KHO1 161831Z 06009KT 16/08 A2997 RMK A01 T01580076  RH  058%=      5-min Rain = 0
KHO1 161832Z 07008KT 16/08 A2997 RMK A01 T01580078  RH  059%=      5-min Rain = 0
KHO1 161833Z 07006KT 16/08 A2997 RMK A01 T01590078  RH  059%=      5-min Rain = 0
KHO1 161834Z 07007G12KT 16/08 A2997 RMK A01 T01600079  RH  058%=      5-min Rain = 0
KHO1 161835Z 04011KT 16/08 A2997 RMK A01 T01610077  RH  057%=      5-min Rain = 0
KHO1 161836Z 04009KT 16/08 A2997 RMK A01 T01600078  RH  058%=      5-min Rain = 0
KHO1 161837Z 04008KT 16/08 A2997 RMK A01 T01620079  RH  058%=      5-min Rain = 0
KHO1 161838Z 04011KT 16/08 A2997 RMK A01 T01640079  RH  057%=      5-min Rain = 0
KHO1 161839Z 04012KT 16/07 A2997 RMK A01 T01620073  RH  056%=      5-min Rain = 0
KHO1 161840Z 04011KT 16/07 A2998 RMK A01 T01590074  RH  057%=      5-min Rain = 0
KHO1 161841Z 04012KT 16/08 A2998 RMK A01 T01600075  RH  057%=      5-min Rain = 0
KHO1 161842Z 04011KT 16/07 A2998 RMK A01 T01620073  RH  056%=      5-min Rain = 0
KHO1 161843Z 03009KT 16/07 A2998 RMK A01 T01600072  RH  056%=      5-min Rain = 0
KHO1 161844Z 03009KT 16/08 A2998 RMK A01 T01580075  RH  058%=      5-min Rain = 0
KHO1 161845Z 05009KT 16/08 A2998 RMK A01 T01620077  RH  057%=      5-min Rain = 0
KHO1 161846Z 03011KT 16/07 A2998 RMK A01 T01630074  RH  055%=      5-min Rain = 0
KHO1 161847Z 04008KT 16/08 A2998 RMK A01 T01640076  RH  056%=      5-min Rain = 0
KHO1 161848Z 04008KT 17/08 A2997 RMK A01 T01650078  RH  056%=      5-min Rain = 0
KHO1 161849Z 06007KT 17/08 A2997 RMK A01 T01670078  RH  056%=      5-min Rain = 0
KHO1 161850Z 06006KT 17/07 A2997 RMK A01 T01690073  RH  053%=      5-min Rain = 0
KHO1 161851Z 06008G14KT 17/08 A2997 RMK A01 T01690075  RH  054%=      5-min Rain = 0
KHO1 161852Z 06009G14KT 17/07 A2997 RMK A01 T01680074  RH  054%=      5-min Rain = 0
KHO1 161853Z 04009KT 17/07 A2997 RMK A01 T01660073  RH  054%=      5-min Rain = 0
KHO1 161854Z 04007KT 16/07 A2996 RMK A01 T01630071  RH  054%=      5-min Rain = 0
KHO1 161855Z 07006KT 16/08 A2996 RMK A01 T01620076  RH  057%=      5-min Rain = 0
KHO1 161856Z 07008KT 16/08 A2996 RMK A01 T01640076  RH  056%=      5-min Rain = 0
KHO1 161857Z 04007KT 17/07 A2996 RMK A01 T01660073  RH  054%=      5-min Rain = 0
KHO1 161858Z 06006KT 16/08 A2996 RMK A01 T01640075  RH  055%=      5-min Rain = 0
KHO1 161859Z 05007KT 17/07 A2995 RMK A01 T01660074  RH  054%=      5-min Rain = 0
KHO1 161900Z 05007KT 17/07 A2995 RMK A01 T01660071  RH  053%=      5-min Rain = 0
KHO1 161901Z 04012KT 17/07 A2996 RMK A01 T01660073  RH  054%=      5-min Rain = 0
KHO1 161902Z 04010KT 17/08 A2996 RMK A01 T01660075  RH  055%=      5-min Rain = 0
KHO1 161903Z 04012KT 17/07 A2996 RMK A01 T01650073  RH  054%=      5-min Rain = 0
KHO1 161904Z 04012G18KT 16/07 A2996 RMK A01 T01640072  RH  055%=      5-min Rain = 0
KHO1 161905Z 04012G17KT 16/07 A2996 RMK A01 T01630072  RH  055%=      5-min Rain = 0
KHO1 161906Z 04012KT 16/07 A2996 RMK A01 T01640073  RH  055%=      5-min Rain = 0
KHO1 161907Z 02013KT 16/07 A2996 RMK A01 T01630072  RH  055%=      5-min Rain = 0
KHO1 161908Z 04013KT 16/07 A2996 RMK A01 T01630071  RH  054%=      5-min Rain = 0
KHO1 161909Z 02012KT 16/07 A2997 RMK A01 T01620073  RH  055%=      5-min Rain = 0
KHO1 161910Z 03014KT 16/07 A2997 RMK A01 T01610074  RH  056%=      5-min Rain = 0
KHO1 161911Z 03012KT 16/07 A2997 RMK A01 T01580074  RH  057%=      5-min Rain = 0
KHO1 161912Z 03011KT 16/07 A2997 RMK A01 T01570073  RH  058%=      5-min Rain = 0
KHO1 161913Z 04011KT 16/07 A2997 RMK A01 T01580073  RH  057%=      5-min Rain = 0
KHO1 161914Z 06009KT 16/07 A2997 RMK A01 T01590074  RH  057%=      5-min Rain = 0
KHO1 161915Z 05009KT 16/07 A2996 RMK A01 T01610074  RH  057%=      5-min Rain = 0
KHO1 161916Z 05011KT 16/07 A2996 RMK A01 T01630073  RH  055%=      5-min Rain = 0
KHO1 161917Z 05008KT 16/07 A2996 RMK A01 T01640074  RH  055%=      5-min Rain = 0
KHO1 161918Z 04009G15KT 17/08 A2996 RMK A01 T01660077  RH  056%=      5-min Rain = 0
KHO1 161919Z 05013KT 17/07 A2996 RMK A01 T01680074  RH  054%=      5-min Rain = 0
KHO1 161920Z 05014KT 16/07 A2996 RMK A01 T01630071  RH  054%=      5-min Rain = 0
KHO1 161921Z 05011G16KT 16/07 A2997 RMK A01 T01600072  RH  056%=      5-min Rain = 0
KHO1 161922Z 07007KT 16/07 A2997 RMK A01 T01590073  RH  056%=      5-min Rain = 0
KHO1 161923Z 04009G15KT 16/07 A2996 RMK A01 T01610073  RH  056%=      5-min Rain = 0
KHO1 161924Z 04013KT 16/07 A2996 RMK A01 T01610071  RH  055%=      5-min Rain = 0
KHO1 161925Z 04013KT 16/07 A2997 RMK A01 T01620072  RH  055%=      5-min Rain = 0
KHO1 161926Z 05012KT 17/07 A2997 RMK A01 T01650073  RH  055%=      5-min Rain = 0
KHO1 161927Z 05011KT 17/07 A2997 RMK A01 T01650071  RH  054%=      5-min Rain = 0
KHO1 161928Z 05011KT 16/07 A2997 RMK A01 T01640068  RH  053%=      5-min Rain = 0
KHO1 161929Z 05008KT 16/07 A2997 RMK A01 T01620066  RH  053%=      5-min Rain = 0
KHO1 161930Z 04010KT 16/07 A2997 RMK A01 T01630069  RH  054%=      5-min Rain = 0
KHO1 161931Z 05009KT 16/07 A2997 RMK A01 T01630069  RH  054%=      5-min Rain = 0
KHO1 161932Z 06008KT 17/07 A2997 RMK A01 T01650070  RH  053%=      5-min Rain = 0
KHO1 161933Z 07007KT 17/07 A2997 RMK A01 T01660071  RH  053%=      5-min Rain = 0
KHO1 161934Z 07007KT 17/07 A2997 RMK A01 T01680070  RH  052%=      5-min Rain = 0
KHO1 161935Z 06008G13KT 17/07 A2997 RMK A01 T01700069  RH  052%=      5-min Rain = 0
KHO1 161936Z 04009KT 17/07 A2997 RMK A01 T01710068  RH  051%=      5-min Rain = 0
KHO1 161937Z 03009KT 17/07 A2997 RMK A01 T01730068  RH  050%=      5-min Rain = 0
KHO1 161938Z 03008KT 17/07 A2997 RMK A01 T01710067  RH  050%=      5-min Rain = 0
KHO1 161939Z 03010KT 17/07 A2997 RMK A01 T01710066  RH  050%=      5-min Rain = 0
KHO1 161940Z 02011KT 17/07 A2996 RMK A01 T01710067  RH  050%=      5-min Rain = 0
KHO1 161941Z 02009KT 17/07 A2996 RMK A01 T01680067  RH  051%=      5-min Rain = 0
KHO1 161942Z 03009KT 17/07 A2996 RMK A01 T01680065  RH  051%=      5-min Rain = 0
KHO1 161943Z 04012KT 17/07 A2996 RMK A01 T01700067  RH  051%=      5-min Rain = 0
KHO1 161944Z 04009KT 17/06 A2996 RMK A01 T01710064  RH  049%=      5-min Rain = 0
KHO1 161945Z 04009KT 17/06 A2997 RMK A01 T01720064  RH  049%=      5-min Rain = 0
KHO1 161946Z 02007KT 17/07 A2997 RMK A01 T01700065  RH  050%=      5-min Rain = 0
KHO1 161947Z 04011G16KT 17/07 A2997 RMK A01 T01720066  RH  050%=      5-min Rain = 0
KHO1 161948Z 04010KT 17/07 A2997 RMK A01 T01740066  RH  049%=      5-min Rain = 0
KHO1 161949Z 04012KT 17/06 A2997 RMK A01 T01740063  RH  048%=      5-min Rain = 0
KHO1 161950Z 03010KT 17/06 A2997 RMK A01 T01710062  RH  049%=      5-min Rain = 0
KHO1 161951Z 02010KT 17/06 A2997 RMK A01 T01710060  RH  048%=      5-min Rain = 0
KHO1 161952Z 04009KT 17/06 A2997 RMK A01 T01700059  RH  048%=      5-min Rain = 0
KHO1 161953Z 03009KT 17/06 A2997 RMK A01 T01720064  RH  049%=      5-min Rain = 0
KHO1 161954Z 03011KT 17/07 A2997 RMK A01 T01740065  RH  049%=      5-min Rain = 0
KHO1 161955Z 02011KT 18/06 A2997 RMK A01 T01750063  RH  048%=      5-min Rain = 0
KHO1 161956Z 02010KT 17/06 A2997 RMK A01 T01730060  RH  047%=      5-min Rain = 0
KHO1 161957Z 05010KT 18/06 A2997 RMK A01 T01750062  RH  047%=      5-min Rain = 0
KHO1 161958Z 03009KT 18/06 A2998 RMK A01 T01770063  RH  047%=      5-min Rain = 0
KHO1 161959Z 03012KT 18/06 A2998 RMK A01 T01780061  RH  046%=      5-min Rain = 0
KHO1 162000Z 03008KT 18/06 A2998 RMK A01 T01760060  RH  046%=      5-min Rain = 0
KHO1 162001Z 03007KT 17/06 A2998 RMK A01 T01730060  RH  048%=      5-min Rain = 0
KHO1 162002Z 03006KT 17/06 A2998 RMK A01 T01720061  RH  048%=      5-min Rain = 0
KHO1 162003Z 01009KT 17/05 A2998 RMK A01 T01720053  RH  045%=      5-min Rain = 0
KHO1 162004Z 01011KT 17/06 A2998 RMK A01 T01720055  RH  046%=      5-min Rain = 0
KHO1 162005Z 01008KT 17/06 A2998 RMK A01 T01680057  RH  048%=      5-min Rain = 0
KHO1 162006Z 03007KT 17/06 A2998 RMK A01 T01700060  RH  048%=      5-min Rain = 0
KHO1 162007Z 01009KT 17/06 A2998 RMK A01 T01720058  RH  047%=      5-min Rain = 0
KHO1 162008Z 02008KT 17/06 A2998 RMK A01 T01720057  RH  047%=      5-min Rain = 0
KHO1 162009Z 04011KT 17/06 A2998 RMK A01 T01740055  RH  046%=      5-min Rain = 0
KHO1 162010Z 04010KT 18/05 A2997 RMK A01 T01750053  RH  045%=      5-min Rain = 0
KHO1 162011Z 05009KT 18/06 A2998 RMK A01 T01760055  RH  045%=      5-min Rain = 0
KHO1 162012Z 07003KT 18/06 A2997 RMK A01 T01770055  RH  044%=      5-min Rain = 0
KHO1 162013Z 04007KT 18/06 A2997 RMK A01 T01780055  RH  044%=      5-min Rain = 0
KHO1 162014Z 04009KT 18/06 A2997 RMK A01 T01790057  RH  044%=      5-min Rain = 0
KHO1 162015Z 03008KT 18/05 A2997 RMK A01 T01800054  RH  043%=      5-min Rain = 0
KHO1 162016Z 02006KT 18/05 A2997 RMK A01 T01790047  RH  042%=      5-min Rain = 0
KHO1 162017Z 01005KT 18/05 A2997 RMK A01 T01760046  RH  042%=      5-min Rain = 0
KHO1 162018Z 06003KT 17/05 A2997 RMK A01 T01740049  RH  044%=      5-min Rain = 0
KHO1 162019Z 05002KT 18/05 A2997 RMK A01 T01760049  RH  043%=      5-min Rain = 0
KHO1 162020Z 04005KT 18/06 A2997 RMK A01 T01780055  RH  044%=      5-min Rain = 0
KHO1 162021Z 06007KT 18/06 A2997 RMK A01 T01790058  RH  045%=      5-min Rain = 0
KHO1 162022Z 07007KT 18/06 A2997 RMK A01 T01780055  RH  044%=      5-min Rain = 0
KHO1 162023Z 07006KT 18/05 A2997 RMK A01 T01780054  RH  044%=      5-min Rain = 0
KHO1 162024Z 08005KT 18/06 A2997 RMK A01 T01780056  RH  045%=      5-min Rain = 0
KHO1 162025Z 08006KT 18/06 A2997 RMK A01 T01790057  RH  045%=      5-min Rain = 0
KHO1 162026Z 06005KT 18/06 A2997 RMK A01 T01790057  RH  044%=      5-min Rain = 0
KHO1 162027Z 06006KT 18/06 A2997 RMK A01 T01790058  RH  045%=      5-min Rain = 0
KHO1 162028Z 04011G16KT 18/06 A2997 RMK A01 T01780060  RH  046%=      5-min Rain = 0
KHO1 162029Z 06007KT 18/06 A2997 RMK A01 T01770063  RH  047%=      5-min Rain = 0
KHO1 162030Z 06008KT 18/07 A2997 RMK A01 T01780065  RH  048%=      5-min Rain = 0
KHO1 162031Z 07007KT 18/06 A2997 RMK A01 T01790063  RH  047%=      5-min Rain = 0
KHO1 162032Z 08006KT 18/06 A2997 RMK A01 T01790063  RH  047%=      5-min Rain = 0
KHO1 162033Z 06007KT 18/06 A2997 RMK A01 T01780064  RH  047%=      5-min Rain = 0
KHO1 162034Z 06007KT 18/06 A2997 RMK A01 T01780063  RH  047%=      5-min Rain = 0
KHO1 162035Z 07006KT 18/06 A2997 RMK A01 T01790063  RH  046%=      5-min Rain = 0
KHO1 162036Z 08006KT 18/06 A2996 RMK A01 T01800063  RH  046%=      5-min Rain = 0
KHO1 162037Z 09009G15KT 18/06 A2996 RMK A01 T01820063  RH  046%=      5-min Rain = 0
KHO1 162038Z 08006KT 18/06 A2996 RMK A01 T01830062  RH  045%=      5-min Rain = 0
KHO1 162039Z 10008G14KT 19/06 A2995 RMK A01 T01850062  RH  045%=      5-min Rain = 0
KHO1 162040Z 09011G16KT 18/06 A2995 RMK A01 T01840059  RH  044%=      5-min Rain = 0
KHO1 162041Z 08007KT 18/06 A2995 RMK A01 T01840060  RH  044%=      5-min Rain = 0
KHO1 162042Z 06007KT 19/06 A2995 RMK A01 T01860061  RH  044%=      5-min Rain = 0
KHO1 162043Z 07009KT 19/06 A2996 RMK A01 T01860059  RH  043%=      5-min Rain = 0
KHO1 162044Z 04009KT 19/06 A2996 RMK A01 T01860057  RH  043%=      5-min Rain = 0
KHO1 162045Z 04008KT 19/06 A2996 RMK A01 T01860056  RH  042%=      5-min Rain = 0
KHO1 162046Z 06006KT 19/06 A2995 RMK A01 T01880055  RH  042%=      5-min Rain = 0
KHO1 162047Z 05009KT 19/06 A2995 RMK A01 T01870056  RH  042%=      5-min Rain = 0
KHO1 162048Z 06008KT 19/05 A2995 RMK A01 T01870053  RH  041%=      5-min Rain = 0
KHO1 162049Z 07006KT 18/05 A2995 RMK A01 T01840052  RH  042%=      5-min Rain = 0
KHO1 162050Z 06008KT 19/06 A2995 RMK A01 T01850055  RH  043%=      5-min Rain = 0
KHO1 162051Z 05009KT 19/05 A2995 RMK A01 T01850052  RH  042%=      5-min Rain = 0
KHO1 162052Z 05008G13KT 18/05 A2995 RMK A01 T01820053  RH  043%=      5-min Rain = 0
KHO1 162053Z 04009KT 18/05 A2995 RMK A01 T01810051  RH  042%=      5-min Rain = 0
KHO1 162054Z 06008KT 18/05 A2995 RMK A01 T01820050  RH  042%=      5-min Rain = 0
KHO1 162055Z 06005KT 18/05 A2996 RMK A01 T01820046  RH  041%=      5-min Rain = 0
KHO1 162056Z 07003KT 18/05 A2995 RMK A01 T01820049  RH  041%=      5-min Rain = 0
KHO1 162057Z 09003KT 19/05 A2995 RMK A01 T01850051  RH  041%=      5-min Rain = 0
KHO1 162058Z 07004KT 19/05 A2995 RMK A01 T01880052  RH  041%=      5-min Rain = 0
KHO1 162059Z 05003KT 19/05 A2995 RMK A01 T01900050  RH  040%=      5-min Rain = 0
KHO1 162100Z 08006KT 19/05 A2995 RMK A01 T01900046  RH  039%=      5-min Rain = 0
KHO1 162101Z 05007KT 19/04 A2996 RMK A01 T01910042  RH  037%=      5-min Rain = 0
KHO1 162102Z 04008KT 19/04 A2996 RMK A01 T01890040  RH  037%=      5-min Rain = 0
KHO1 162103Z 05004KT 19/04 A2996 RMK A01 T01880044  RH  039%=      5-min Rain = 0
KHO1 162104Z 05006KT 19/04 A2996 RMK A01 T01910043  RH  038%=      5-min Rain = 0
KHO1 162105Z 06008KT 19/04 A2995 RMK A01 T01920042  RH  037%=      5-min Rain = 0
KHO1 162106Z 06008KT 19/04 A2995 RMK A01 T01910042  RH  037%=      5-min Rain = 0
KHO1 162107Z 06008G14KT 19/04 A2995 RMK A01 T01880042  RH  038%=      5-min Rain = 0
KHO1 162108Z 06009KT 19/04 A2995 RMK A01 T01880042  RH  038%=      5-min Rain = 0
KHO1 162109Z 05011KT 19/04 A2995 RMK A01 T01880043  RH  038%=      5-min Rain = 0
KHO1 162110Z 02011KT 19/04 A2995 RMK A01 T01890041  RH  038%=      5-min Rain = 0
KHO1 162111Z 03012KT 18/04 A2995 RMK A01 T01840037  RH  038%=      5-min Rain = 0
KHO1 162112Z 03009KT 18/04 A2995 RMK A01 T01790037  RH  039%=      5-min Rain = 0
KHO1 162113Z 03007KT 18/04 A2995 RMK A01 T01760035  RH  039%=      5-min Rain = 0
KHO1 162114Z 03007KT 18/04 A2995 RMK A01 T01750036  RH  040%=      5-min Rain = 0
KHO1 162115Z 04007KT 18/04 A2995 RMK A01 T01760038  RH  040%=      5-min Rain = 0
KHO1 162116Z 04007KT 18/03 A2995 RMK A01 T01770031  RH  038%=      5-min Rain = 0
KHO1 162117Z 07002KT 18/03 A2995 RMK A01 T01750032  RH  038%=      5-min Rain = 0
KHO1 162118Z 08002KT 17/04 A2995 RMK A01 T01740035  RH  040%=      5-min Rain = 0
KHO1 162119Z 04006G11KT 18/04 A2995 RMK A01 T01770041  RH  040%=      5-min Rain = 0
KHO1 162120Z 04008KT 18/04 A2996 RMK A01 T01830044  RH  040%=      5-min Rain = 0
KHO1 162121Z 05008KT 19/04 A2996 RMK A01 T01870042  RH  038%=      5-min Rain = 0
KHO1 162122Z 04010KT 19/04 A2995 RMK A01 T01880038  RH  037%=      5-min Rain = 0
KHO1 162123Z 03008KT 19/04 A2995 RMK A01 T01860037  RH  037%=      5-min Rain = 0
KHO1 162124Z 04007KT 18/04 A2995 RMK A01 T01840037  RH  038%=      5-min Rain = 0
KHO1 162125Z 07005KT 18/04 A2995 RMK A01 T01840041  RH  039%=      5-min Rain = 0
KHO1 162126Z 08009KT 19/04 A2995 RMK A01 T01880039  RH  037%=      5-min Rain = 0
KHO1 162127Z 07007KT 19/04 A2995 RMK A01 T01920036  RH  036%=      5-min Rain = 0
KHO1 162128Z 07008KT 19/03 A2995 RMK A01 T01920034  RH  035%=      5-min Rain = 0
KHO1 162129Z 06008KT 19/03 A2995 RMK A01 T01900034  RH  035%=      5-min Rain = 0
KHO1 162130Z 06007KT 19/03 A2995 RMK A01 T01900034  RH  036%=      5-min Rain = 0
KHO1 162131Z 08008KT 19/03 A2995 RMK A01 T01910034  RH  035%=      5-min Rain = 0
KHO1 162132Z 05010G15KT 19/03 A2995 RMK A01 T01930030  RH  034%=      5-min Rain = 0
KHO1 162133Z 04016KT 19/03 A2995 RMK A01 T01940027  RH  033%=      5-min Rain = 0
KHO1 162134Z 04013KT 19/03 A2995 RMK A01 T01930025  RH  033%=      5-min Rain = 0
KHO1 162135Z 05008KT 19/03 A2995 RMK A01 T01920026  RH  033%=      5-min Rain = 0
KHO1 162136Z 03012KT 19/02 A2995 RMK A01 T01900020  RH  032%=      5-min Rain = 0
KHO1 162137Z 02010KT 18/02 A2995 RMK A01 T01840017  RH  033%=      5-min Rain = 0
KHO1 162138Z 03011KT 18/02 A2995 RMK A01 T01810019  RH  034%=      5-min Rain = 0
KHO1 162139Z 03010KT 18/02 A2995 RMK A01 T01830018  RH  033%=      5-min Rain = 0
KHO1 162140Z 01009KT 19/02 A2995 RMK A01 T01850018  RH  033%=      5-min Rain = 0
KHO1 162141Z 03008KT 19/02 A2995 RMK A01 T01870019  RH  032%=      5-min Rain = 0
KHO1 162142Z 04008KT 19/02 A2995 RMK A01 T01860019  RH  033%=      5-min Rain = 0
KHO1 162143Z 05008KT 19/03 A2995 RMK A01 T01870025  RH  034%=      5-min Rain = 0
KHO1 162144Z 06005KT 19/03 A2995 RMK A01 T01910028  RH  034%=      5-min Rain = 0
KHO1 162145Z 09009G14KT 19/03 A2995 RMK A01 T01920030  RH  034%=      5-min Rain = 0
KHO1 162146Z 10010KT 19/03 A2995 RMK A01 T01930029  RH  034%=      5-min Rain = 0
KHO1 162147Z 07008G13KT 19/03 A2995 RMK A01 T01940029  RH  033%=      5-min Rain = 0
KHO1 162148Z 06010KT 19/02 A2995 RMK A01 T01920024  RH  033%=      5-min Rain = 0
KHO1 162149Z 05007KT 19/02 A2995 RMK A01 T01890022  RH  033%=      5-min Rain = 0
KHO1 162150Z 04008KT 19/02 A2995 RMK A01 T01870023  RH  033%=      5-min Rain = 0
KHO1 162151Z 05008KT 19/02 A2995 RMK A01 T01880024  RH  033%=      5-min Rain = 0
KHO1 162152Z 07005KT 19/02 A2995 RMK A01 T01880023  RH  033%=      5-min Rain = 0
KHO1 162153Z 08005KT 19/03 A2995 RMK A01 T01890026  RH  034%=      5-min Rain = 0
KHO1 162154Z 07006KT 19/03 A2995 RMK A01 T01910026  RH  033%=      5-min Rain = 0
KHO1 162155Z 06008KT 19/03 A2995 RMK A01 T01910028  RH  034%=      5-min Rain = 0
KHO1 162156Z 05011G18KT 19/04 A2995 RMK A01 T01900036  RH  036%=      5-min Rain = 0
KHO1 162157Z 04013KT 19/04 A2995 RMK A01 T01900040  RH  037%=      5-min Rain = 0
KHO1 162158Z 05012KT 19/04 A2995 RMK A01 T01910040  RH  037%=      5-min Rain = 0
KHO1 162159Z 03011KT 19/04 A2995 RMK A01 T01890040  RH  037%=      5-min Rain = 0
KHO1 162200Z 05010G15KT 19/04 A2995 RMK A01 T01910040  RH  037%=      5-min Rain = 0
KHO1 162201Z 06011KT 19/04 A2995 RMK A01 T01920037  RH  036%=      5-min Rain = 0
KHO1 162202Z 06011KT 19/04 A2995 RMK A01 T01890038  RH  037%=      5-min Rain = 0
KHO1 162203Z 06010KT 19/04 A2995 RMK A01 T01890038  RH  037%=      5-min Rain = 0
KHO1 162204Z 06010KT 19/03 A2995 RMK A01 T01880034  RH  036%=      5-min Rain = 0
KHO1 162205Z 05011KT 19/04 A2995 RMK A01 T01860035  RH  037%=      5-min Rain = 0
KHO1 162206Z 04012KT 19/04 A2995 RMK A01 T01850036  RH  037%=      5-min Rain = 0
KHO1 162207Z 05013G18KT 19/04 A2994 RMK A01 T01880039  RH  037%=      5-min Rain = 0
KHO1 162208Z 07009KT 19/04 A2995 RMK A01 T01880041  RH  038%=      5-min Rain = 0
KHO1 162209Z 09009G14KT 19/04 A2995 RMK A01 T01870041  RH  038%=      5-min Rain = 0
KHO1 162210Z 08009KT 19/04 A2995 RMK A01 T01860039  RH  038%=      5-min Rain = 0
KHO1 162211Z 08010KT 19/04 A2995 RMK A01 T01860038  RH  038%=      5-min Rain = 0
KHO1 162212Z 07009KT 18/04 A2995 RMK A01 T01840037  RH  038%=      5-min Rain = 0
KHO1 162213Z 07008KT 18/04 A2995 RMK A01 T01820038  RH  038%=      5-min Rain = 0
KHO1 162214Z 08009KT 18/04 A2995 RMK A01 T01820038  RH  039%=      5-min Rain = 0
KHO1 162215Z 09007KT 18/04 A2995 RMK A01 T01830036  RH  038%=      5-min Rain = 0
KHO1 162216Z 09008KT 18/04 A2995 RMK A01 T01830035  RH  037%=      5-min Rain = 0
KHO1 162217Z 09007KT 18/03 A2995 RMK A01 T01820033  RH  037%=      5-min Rain = 0
KHO1 162218Z 08009KT 18/03 A2995 RMK A01 T01820033  RH  037%=      5-min Rain = 0
KHO1 162219Z 07007KT 18/03 A2995 RMK A01 T01820033  RH  037%=      5-min Rain = 0
KHO1 162220Z 06010G15KT 18/03 A2995 RMK A01 T01830033  RH  037%=      5-min Rain = 0
KHO1 162221Z 07007KT 18/03 A2995 RMK A01 T01830033  RH  037%=      5-min Rain = 0
KHO1 162222Z 09008KT 18/03 A2995 RMK A01 T01840032  RH  036%=      5-min Rain = 0
KHO1 162223Z 09006KT 19/03 A2995 RMK A01 T01870027  RH  035%=      5-min Rain = 0
KHO1 162224Z 07007G12KT 19/03 A2995 RMK A01 T01890029  RH  034%=      5-min Rain = 0
KHO1 162225Z 07009KT 19/03 A2995 RMK A01 T01910029  RH  034%=      5-min Rain = 0
KHO1 162226Z 09011KT 19/03 A2995 RMK A01 T01920032  RH  035%=      5-min Rain = 0
KHO1 162227Z 07009KT 19/03 A2995 RMK A01 T01930033  RH  035%=      5-min Rain = 0
KHO1 162228Z 07009KT 19/03 A2995 RMK A01 T01930031  RH  034%=      5-min Rain = 0
KHO1 162229Z 08010KT 19/03 A2995 RMK A01 T01910031  RH  034%=      5-min Rain = 0
KHO1 162230Z 06011KT 19/03 A2995 RMK A01 T01920031  RH  034%=      5-min Rain = 0
KHO1 162231Z 06012KT 19/03 A2995 RMK A01 T01910029  RH  034%=      5-min Rain = 0
KHO1 162232Z 06012KT 19/03 A2995 RMK A01 T01880028  RH  034%=      5-min Rain = 0
KHO1 162233Z 06013G20KT 19/03 A2995 RMK A01 T01870029  RH  035%=      5-min Rain = 0
KHO1 162234Z 07009KT 19/03 A2995 RMK A01 T01860030  RH  035%=      5-min Rain = 0
KHO1 162235Z 05013KT 19/03 A2995 RMK A01 T01850030  RH  036%=      5-min Rain = 0
KHO1 162236Z 05012KT 18/03 A2995 RMK A01 T01830030  RH  036%=      5-min Rain = 0
KHO1 162237Z 04012G18KT 18/03 A2995 RMK A01 T01810029  RH  036%=      5-min Rain = 0
KHO1 162238Z 05011KT 18/03 A2995 RMK A01 T01790029  RH  037%=      5-min Rain = 0
KHO1 162239Z 04014KT 18/03 A2995 RMK A01 T01780029  RH  037%=      5-min Rain = 0
KHO1 162240Z 04010KT 18/03 A2995 RMK A01 T01760030  RH  037%=      5-min Rain = 0
KHO1 162241Z 05009KT 18/03 A2996 RMK A01 T01760030  RH  038%=      5-min Rain = 0
KHO1 162242Z 05012KT 18/03 A2995 RMK A01 T01760029  RH  037%=      5-min Rain = 0
KHO1 162243Z 06009KT 18/03 A2995 RMK A01 T01760029  RH  037%=      5-min Rain = 0
KHO1 162244Z 06006KT 18/03 A2996 RMK A01 T01750030  RH  038%=      5-min Rain = 0
KHO1 162245Z 06007KT 18/03 A2996 RMK A01 T01760031  RH  038%=      5-min Rain = 0
KHO1 162246Z 08006KT 18/03 A2996 RMK A01 T01770032  RH  038%=      5-min Rain = 0
KHO1 162247Z 07007KT 18/03 A2996 RMK A01 T01770034  RH  038%=      5-min Rain = 0
KHO1 162248Z 07009G16KT 18/04 A2996 RMK A01 T01790035  RH  039%=      5-min Rain = 0
KHO1 162249Z 06010KT 18/03 A2996 RMK A01 T01790034  RH  038%=      5-min Rain = 0
KHO1 162250Z 06011G17KT 18/03 A2996 RMK A01 T01780034  RH  038%=      5-min Rain = 0
KHO1 162251Z 07009KT 18/03 A2996 RMK A01 T01780034  RH  038%=      5-min Rain = 0
KHO1 162252Z 06008KT 18/03 A2996 RMK A01 T01780034  RH  038%=      5-min Rain = 0
KHO1 162253Z 06010KT 18/03 A2995 RMK A01 T01790033  RH  038%=      5-min Rain = 0
KHO1 162254Z 06012KT 18/03 A2995 RMK A01 T01790032  RH  038%=      5-min Rain = 0
KHO1 162255Z 06010KT 18/03 A2995 RMK A01 T01790031  RH  037%=      5-min Rain = 0
KHO1 162256Z 06012KT 18/03 A2995 RMK A01 T01780029  RH  037%=      5-min Rain = 0
KHO1 162257Z 06009KT 18/03 A2995 RMK A01 T01760028  RH  037%=      5-min Rain = 0
KHO1 162258Z 06009KT 18/03 A2995 RMK A01 T01760028  RH  037%=      5-min Rain = 0
KHO1 162259Z 07007KT 18/03 A2995 RMK A01 T01770027  RH  037%=      5-min Rain = 0
KHO1 162300Z 06009KT 18/03 A2995 RMK A01 T01780027  RH  036%=      5-min Rain = 0
KHO1 162301Z 07008KT 18/03 A2995 RMK A01 T01790026  RH  036%=      5-min Rain = 0
KHO1 162302Z 07008KT 18/03 A2995 RMK A01 T01800025  RH  035%=      5-min Rain = 0
KHO1 162303Z 07008KT 18/02 A2995 RMK A01 T01770024  RH  036%=      5-min Rain = 0
KHO1 162304Z 07010KT 18/02 A2996 RMK A01 T01760024  RH  036%=      5-min Rain = 0
KHO1 162305Z 06011KT 17/02 A2996 RMK A01 T01740023  RH  036%=      5-min Rain = 0
KHO1 162306Z 05014KT 17/02 A2995 RMK A01 T01720022  RH  036%=      5-min Rain = 0
KHO1 162307Z 05009KT 17/02 A2996 RMK A01 T01700023  RH  037%=      5-min Rain = 0
KHO1 162308Z 05008KT 17/02 A2996 RMK A01 T01700023  RH  037%=      5-min Rain = 0
KHO1 162309Z 05012KT 17/02 A2996 RMK A01 T01700022  RH  037%=      5-min Rain = 0
KHO1 162310Z 05008KT 17/02 A2996 RMK A01 T01700022  RH  037%=      5-min Rain = 0
KHO1 162311Z 05008KT 17/02 A2996 RMK A01 T01700022  RH  037%=      5-min Rain = 0
KHO1 162312Z 06009KT 17/02 A2996 RMK A01 T01690021  RH  037%=      5-min Rain = 0
KHO1 162313Z 07009KT 17/02 A2996 RMK A01 T01690022  RH  037%=      5-min Rain = 0
KHO1 162314Z 07008KT 17/02 A2996 RMK A01 T01690021  RH  037%=      5-min Rain = 0
KHO1 162315Z 06009KT 17/02 A2996 RMK A01 T01680021  RH  037%=      5-min Rain = 0
KHO1 162316Z 06010KT 17/02 A2996 RMK A01 T01680020  RH  037%=      5-min Rain = 0
KHO1 162317Z 06012G17KT 17/02 A2996 RMK A01 T01670019  RH  037%=      5-min Rain = 0
KHO1 162318Z 07008KT 17/02 A2997 RMK A01 T01660020  RH  037%=      5-min Rain = 0
KHO1 162319Z 05011G16KT 17/02 A2997 RMK A01 T01660020  RH  037%=      5-min Rain = 0
KHO1 162320Z 06011KT 17/02 A2997 RMK A01 T01660019  RH  037%=      5-min Rain = 0
KHO1 162321Z 06010KT 17/02 A2997 RMK A01 T01660019  RH  037%=      5-min Rain = 0
KHO1 162322Z 06012KT 17/02 A2997 RMK A01 T01650019  RH  037%=      5-min Rain = 0
KHO1 162323Z 06009G14KT 17/02 A2997 RMK A01 T01650019  RH  037%=      5-min Rain = 0
KHO1 162324Z 06015KT 17/02 A2997 RMK A01 T01650018  RH  037%=      5-min Rain = 0
KHO1 162325Z 05012KT 16/02 A2997 RMK A01 T01640018  RH  037%=      5-min Rain = 0
KHO1 162326Z 06012KT 16/02 A2997 RMK A01 T01640018  RH  037%=      5-min Rain = 0
KHO1 162327Z 06010KT 16/02 A2997 RMK A01 T01630018  RH  038%=      5-min Rain = 0
KHO1 162328Z 05009KT 16/02 A2997 RMK A01 T01640019  RH  038%=      5-min Rain = 0
KHO1 162329Z 04013G18KT 17/02 A2997 RMK A01 T01650019  RH  037%=      5-min Rain = 0
KHO1 162330Z 05013G19KT 17/02 A2997 RMK A01 T01660018  RH  037%=      5-min Rain = 0
KHO1 162331Z 05012KT 17/02 A2996 RMK A01 T01660017  RH  037%=      5-min Rain = 0
KHO1 162332Z 05011G17KT 17/02 A2996 RMK A01 T01650017  RH  037%=      5-min Rain = 0
KHO1 162333Z 05014G20KT 17/02 A2996 RMK A01 T01660016  RH  036%=      5-min Rain = 0
KHO1 162334Z 05012G17KT 17/02 A2996 RMK A01 T01650016  RH  036%=      5-min Rain = 0
KHO1 162335Z 06015KT 17/02 A2996 RMK A01 T01660016  RH  036%=      5-min Rain = 0
KHO1 162336Z 06010KT 17/02 A2996 RMK A01 T01670015  RH  036%=      5-min Rain = 0
KHO1 162337Z 07010KT 17/02 A2996 RMK A01 T01670015  RH  036%=      5-min Rain = 0
KHO1 162338Z 06012KT 17/02 A2996 RMK A01 T01680015  RH  036%=      5-min Rain = 0
KHO1 162339Z 06014KT 17/01 A2996 RMK A01 T01690014  RH  035%=      5-min Rain = 0
KHO1 162340Z 05017KT 17/01 A2996 RMK A01 T01670012  RH  035%=      5-min Rain = 0
KHO1 162341Z 07012KT 17/01 A2996 RMK A01 T01670013  RH  035%=      5-min Rain = 0
KHO1 162342Z 06011G16KT 17/01 A2996 RMK A01 T01680013  RH  035%=      5-min Rain = 0
KHO1 162343Z 06011KT 17/01 A2996 RMK A01 T01680011  RH  035%=      5-min Rain = 0
KHO1 162344Z 07009KT 17/01 A2996 RMK A01 T01680012  RH  035%=      5-min Rain = 0
KHO1 162345Z 06011G17KT 17/01 A2996 RMK A01 T01680011  RH  034%=      5-min Rain = 0
KHO1 162346Z 06012G17KT 17/01 A2996 RMK A01 T01670010  RH  034%=      5-min Rain = 0
KHO1 162347Z 06009KT 17/01 A2996 RMK A01 T01670010  RH  035%=      5-min Rain = 0
KHO1 162348Z 05014G19KT 17/01 A2996 RMK A01 T01660009  RH  035%=      5-min Rain = 0
KHO1 162349Z 06009KT 17/01 A2997 RMK A01 T01650010  RH  035%=      5-min Rain = 0
KHO1 162350Z 06012G20KT 16/01 A2997 RMK A01 T01640011  RH  036%=      5-min Rain = 0
KHO1 162351Z 06012KT 16/01 A2997 RMK A01 T01630010  RH  036%=      5-min Rain = 0
KHO1 162352Z 05013G19KT 16/01 A2997 RMK A01 T01620011  RH  036%=      5-min Rain = 0
KHO1 162353Z 05014KT 16/01 A2997 RMK A01 T01610010  RH  036%=      5-min Rain = 0
KHO1 162354Z 05012KT 16/01 A2997 RMK A01 T01600011  RH  036%=      5-min Rain = 0
KHO1 162355Z 06011KT 16/01 A2997 RMK A01 T01600011  RH  036%=      5-min Rain = 0
KHO1 162356Z 05010KT 16/01 A2998 RMK A01 T01600012  RH  037%=      5-min Rain = 0
KHO1 162357Z 07011KT 16/01 A2998 RMK A01 T01610012  RH  037%=      5-min Rain = 0
KHO1 162358Z 07011KT 16/01 A2998 RMK A01 T01600012  RH  036%=      5-min Rain = 0
KHO1 162359Z 08010KT 16/01 A2998 RMK A01 T01600012  RH  037%=      5-min Rain = 0
KHO1 170000Z 08009KT 16/01 A2998 RMK A01 T01600012  RH  037%=      5-min Rain = 0
KHO1 170001Z 07011KT 16/01 A2998 RMK A01 T01600011  RH  036%=      5-min Rain = 0
KHO1 170002Z 07011KT 16/01 A2998 RMK A01 T01600010  RH  036%=      5-min Rain = 0
KHO1 170003Z 07010KT 16/01 A2998 RMK A01 T01590010  RH  036%=      5-min Rain = 0
KHO1 170004Z 06011KT 16/01 A2998 RMK A01 T01580009  RH  036%=      5-min Rain = 0
KHO1 170005Z 07009KT 16/01 A2998 RMK A01 T01570010  RH  037%=      5-min Rain = 0
KHO1 170006Z 05008KT 16/01 A2998 RMK A01 T01570010  RH  037%=      5-min Rain = 0
KHO1 170007Z 05009KT 16/01 A2998 RMK A01 T01570010  RH  037%=      5-min Rain = 0
KHO1 170008Z 05012G17KT 16/01 A2998 RMK A01 T01570009  RH  037%=      5-min Rain = 0
KHO1 170009Z 05012KT 16/01 A2998 RMK A01 T01560008  RH  037%=      5-min Rain = 0
KHO1 170010Z 06010G16KT 16/01 A2998 RMK A01 T01560008  RH  037%=      5-min Rain = 0
KHO1 170011Z 07009KT 16/01 A2998 RMK A01 T01560007  RH  037%=      5-min Rain = 0
KHO1 170012Z 06011G18KT 16/01 A2998 RMK A01 T01550007  RH  036%=      5-min Rain = 0
KHO1 170013Z 05013KT 16/01 A2998 RMK A01 T01550007  RH  036%=      5-min Rain = 0
KHO1 170014Z 06012KT 16/01 A2998 RMK A01 T01550007  RH  037%=      5-min Rain = 0
KHO1 170015Z 06009KT 15/01 A2999 RMK A01 T01540007  RH  037%=      5-min Rain = 0
KHO1 170016Z 07009KT 15/01 A2999 RMK A01 T01540008  RH  037%=      5-min Rain = 0
KHO1 170017Z 07010KT 15/01 A2999 RMK A01 T01540009  RH  037%=      5-min Rain = 0
KHO1 170018Z 07011KT 16/01 A2999 RMK A01 T01550009  RH  037%=      5-min Rain = 0
KHO1 170019Z 07010KT 15/01 A2999 RMK A01 T01540009  RH  037%=      5-min Rain = 0
KHO1 170020Z 07010KT 15/01 A2999 RMK A01 T01540009  RH  037%=      5-min Rain = 0
KHO1 170021Z 07010KT 15/01 A2999 RMK A01 T01530009  RH  037%=      5-min Rain = 0
KHO1 170022Z 07010KT 15/01 A2999 RMK A01 T01530008  RH  037%=      5-min Rain = 0
KHO1 170023Z 07009KT 15/01 A2999 RMK A01 T01530009  RH  038%=      5-min Rain = 0
KHO1 170024Z 06010KT 15/01 A2999 RMK A01 T01520009  RH  038%=      5-min Rain = 0
KHO1 170025Z 07008KT 15/01 A2999 RMK A01 T01520009  RH  038%=      5-min Rain = 0
KHO1 170026Z 07009KT 15/01 A2998 RMK A01 T01520008  RH  037%=      5-min Rain = 0
KHO1 170027Z 07010KT 15/01 A2998 RMK A01 T01520007  RH  037%=      5-min Rain = 0
KHO1 170028Z 07009KT 15/01 A2998 RMK A01 T01520008  RH  037%=      5-min Rain = 0
KHO1 170029Z 07010KT 15/01 A2998 RMK A01 T01520008  RH  037%=      5-min Rain = 0
KHO1 170030Z 07009KT 15/01 A2999 RMK A01 T01520008  RH  038%=      5-min Rain = 0
KHO1 170031Z 06010G17KT 15/01 A2999 RMK A01 T01520008  RH  038%=      5-min Rain = 0
KHO1 170032Z 06010KT 15/01 A2999 RMK A01 T01510009  RH  038%=      5-min Rain = 0
KHO1 170033Z 06009KT 15/01 A2999 RMK A01 T01510009  RH  038%=      5-min Rain = 0
KHO1 170034Z 07009G14KT 15/01 A2999 RMK A01 T01520008  RH  038%=      5-min Rain = 0
KHO1 170035Z 06009G16KT 15/01 A2999 RMK A01 T01520008  RH  038%=      5-min Rain = 0
KHO1 170036Z 07008KT 15/01 A2999 RMK A01 T01510008  RH  038%=      5-min Rain = 0
KHO1 170037Z 07008KT 15/01 A2999 RMK A01 T01510008  RH  038%=      5-min Rain = 0
KHO1 170038Z 06009KT 15/01 A2999 RMK A01 T01510008  RH  038%=      5-min Rain = 0
KHO1 170039Z 07007KT 15/01 A2999 RMK A01 T01510009  RH  038%=      5-min Rain = 0
KHO1 170040Z 06009G16KT 15/01 A2999 RMK A01 T01510008  RH  038%=      5-min Rain = 0
KHO1 170041Z 06012G17KT 15/01 A2999 RMK A01 T01510007  RH  038%=      5-min Rain = 0
KHO1 170042Z 06012G18KT 15/01 A2998 RMK A01 T01500007  RH  038%=      5-min Rain = 0
KHO1 170043Z 07011KT 15/01 A2999 RMK A01 T01500008  RH  038%=      5-min Rain = 0
KHO1 170044Z 06014KT 15/01 A2998 RMK A01 T01500008  RH  038%=      5-min Rain = 0
KHO1 170045Z 06014KT 15/01 A2998 RMK A01 T01490007  RH  038%=      5-min Rain = 0
KHO1 170046Z 06014KT 15/01 A2999 RMK A01 T01480007  RH  038%=      5-min Rain = 0
KHO1 170047Z 06014KT 15/01 A2999 RMK A01 T01480007  RH  038%=      5-min Rain = 0
KHO1 170048Z 04015KT 15/01 A2999 RMK A01 T01470007  RH  039%=      5-min Rain = 0
KHO1 170049Z 05014KT 15/01 A2999 RMK A01 T01460008  RH  039%=      5-min Rain = 0
KHO1 170050Z 05013KT 15/01 A2999 RMK A01 T01460008  RH  039%=      5-min Rain = 0
KHO1 170051Z 06014KT 15/01 A2999 RMK A01 T01450008  RH  039%=      5-min Rain = 0
KHO1 170052Z 06013G20KT 15/01 A2999 RMK A01 T01450008  RH  039%=      5-min Rain = 0
KHO1 170053Z 06012KT 15/01 A2999 RMK A01 T01450008  RH  039%=      5-min Rain = 0
KHO1 170054Z 06010KT 15/01 A2999 RMK A01 T01450008  RH  039%=      5-min Rain = 0
KHO1 170055Z 06011KT 14/01 A2999 RMK A01 T01440008  RH  039%=      5-min Rain = 0
KHO1 170056Z 06012KT 14/01 A30 RMK A01 T01440008  RH  039%=      5-min Rain = 0
KHO1 170057Z 06013KT 14/01 A30 RMK A01 T01430006  RH  039%=      5-min Rain = 0
KHO1 170058Z 06012G18KT 14/01 A30 RMK A01 T01430006  RH  039%=      5-min Rain = 0
KHO1 170059Z 06014KT 14/01 A30 RMK A01 T01420005  RH  039%=      5-min Rain = 0
KHO1 170100Z 05011KT 14/01 A30 RMK A01 T01410005  RH  039%=      5-min Rain = 0
KHO1 170101Z 05015KT 14/01 A30 RMK A01 T01410005  RH  040%=      5-min Rain = 0
KHO1 170102Z 05016KT 14/01 A30 RMK A01 T01400005  RH  040%=      5-min Rain = 0
KHO1 170103Z 05017G22KT 14/01 A30 RMK A01 T01390005  RH  040%=      5-min Rain = 0
KHO1 170104Z 05016G21KT 14/01 A30 RMK A01 T01390005  RH  040%=      5-min Rain = 0
KHO1 170105Z 05015KT 14/01 A30 RMK A01 T01380005  RH  040%=      5-min Rain = 0
KHO1 170106Z 05015G20KT 14/01 A30 RMK A01 T01380005  RH  040%=      5-min Rain = 0
KHO1 170107Z 06016G21KT 14/01 A30 RMK A01 T01370005  RH  040%=      5-min Rain = 0
KHO1 170108Z 05015KT 14/01 A2999 RMK A01 T01370005  RH  040%=      5-min Rain = 0
KHO1 170109Z 05012KT 14/01 A30 RMK A01 T01360005  RH  041%=      5-min Rain = 0
KHO1 170110Z 05013KT 14/01 A30 RMK A01 T01360005  RH  041%=      5-min Rain = 0
KHO1 170111Z 05012KT 14/01 A30 RMK A01 T01360005  RH  041%=      5-min Rain = 0
KHO1 170112Z 05013KT 14/01 A30 RMK A01 T01350005  RH  041%=      5-min Rain = 0
KHO1 170113Z 06013G18KT 14/01 A30 RMK A01 T01350005  RH  041%=      5-min Rain = 0
KHO1 170114Z 05012KT 14/01 A30 RMK A01 T01350005  RH  041%=      5-min Rain = 0
KHO1 170115Z 06010KT 13/01 A3001 RMK A01 T01340005  RH  041%=      5-min Rain = 0
KHO1 170116Z 05012KT 13/01 A3001 RMK A01 T01340005  RH  041%=      5-min Rain = 0
KHO1 170117Z 06012KT 13/01 A3001 RMK A01 T01340005  RH  041%=      5-min Rain = 0
KHO1 170118Z 05014KT 13/00 A3001 RMK A01 T01330004  RH  041%=      5-min Rain = 0
KHO1 170119Z 06013G19KT 13/00 A3001 RMK A01 T01330003  RH  041%=      5-min Rain = 0
KHO1 170120Z 06012G18KT 13/00 A3001 RMK A01 T01330003  RH  041%=      5-min Rain = 0
KHO1 170121Z 05012G18KT 13/00 A3002 RMK A01 T01330002  RH  041%=      5-min Rain = 0
KHO1 170122Z 05012G17KT 13/00 A3002 RMK A01 T01320002  RH  041%=      5-min Rain = 0
KHO1 170123Z 05012G18KT 13/00 A3002 RMK A01 T01320002  RH  041%=      5-min Rain = 0
KHO1 170124Z 05011G16KT 13/00 A3002 RMK A01 T01310002  RH  041%=      5-min Rain = 0
KHO1 170125Z 05013G18KT 13/00 A3002 RMK A01 T01310001  RH  041%=      5-min Rain = 0
KHO1 170126Z 06010KT 13/00 A3002 RMK A01 T01300001  RH  041%=      5-min Rain = 0
KHO1 170127Z 05012KT 13/00 A3002 RMK A01 T01300001  RH  041%=      5-min Rain = 0
KHO1 170128Z 06010G15KT 13/00 A3002 RMK A01 T01290000  RH  041%=      5-min Rain = 0
KHO1 170129Z 06013KT 13/00 A3002 RMK A01 T01290000  RH  041%=      5-min Rain = 0
KHO1 170130Z 05011KT 13/00 A3003 RMK A01 T01290000  RH  041%=      5-min Rain = 0
KHO1 170131Z 06010KT 13/00 A3003 RMK A01 T01280000  RH  041%=      5-min Rain = 0
KHO1 170132Z 06010KT 13/00 A3003 RMK A01 T01280000  RH  041%=      5-min Rain = 0
KHO1 170133Z 05013KT 13/00 A3002 RMK A01 T01280000  RH  041%=      5-min Rain = 0
KHO1 170134Z 06009KT 13/00 A3002 RMK A01 T01270000  RH  042%=      5-min Rain = 0
KHO1 170135Z 05011G16KT 13/00 A3002 RMK A01 T01270000  RH  042%=      5-min Rain = 0
KHO1 170136Z 06013G18KT 13/00 A3003 RMK A01 T01260000  RH  042%=      5-min Rain = 0
KHO1 170137Z 05010KT 13/00 A3003 RMK A01 T01260000  RH  042%=      5-min Rain = 0
KHO1 170138Z 06009G14KT 13/00 A3003 RMK A01 T01260001  RH  042%=      5-min Rain = 0
KHO1 170139Z 06010KT 13/00 A3003 RMK A01 T01260001  RH  042%=      5-min Rain = 0
KHO1 170140Z 06009KT 13/00 A3003 RMK A01 T01250000  RH  042%=      5-min Rain = 0
KHO1 170141Z 06008KT 13/00 A3003 RMK A01 T01250001  RH  042%=      5-min Rain = 0
KHO1 170142Z 06010G15KT 12/00 A3003 RMK A01 T01240001  RH  043%=      5-min Rain = 0
KHO1 170143Z 06012G17KT 12/00 A3003 RMK A01 T01240000  RH  042%=      5-min Rain = 0
KHO1 170144Z 06010KT 12/00 A3004 RMK A01 T01240000  RH  043%=      5-min Rain = 0
KHO1 170145Z 06011KT 12/00 A3004 RMK A01 T01240001  RH  043%=      5-min Rain = 0
KHO1 170146Z 06012G17KT 12/00 A3003 RMK A01 T01230000  RH  043%=      5-min Rain = 0
KHO1 170147Z 06011KT 12/00 A3004 RMK A01 T01230000  RH  043%=      5-min Rain = 0
KHO1 170148Z 06012KT 12/00 A3004 RMK A01 T01220000  RH  043%=      5-min Rain = 0
KHO1 170149Z 06012G17KT 12/00 A3004 RMK A01 T01220001  RH  043%=      5-min Rain = 0
KHO1 170150Z 06011KT 12/00 A3005 RMK A01 T01210001  RH  044%=      5-min Rain = 0
KHO1 170151Z 05013G19KT 12/00 A3004 RMK A01 T01200002  RH  044%=      5-min Rain = 0
KHO1 170152Z 06011KT 12/00 A3004 RMK A01 T01200002  RH  044%=      5-min Rain = 0
KHO1 170153Z 06011KT 12/00 A3004 RMK A01 T01190002  RH  045%=      5-min Rain = 0
KHO1 170154Z 06014G19KT 12/00 A3004 RMK A01 T01180002  RH  045%=      5-min Rain = 0
KHO1 170155Z 06016KT 12/00 A3004 RMK A01 T01180002  RH  045%=      5-min Rain = 0
KHO1 170156Z 05017KT 12/00 A3004 RMK A01 T01170002  RH  045%=      5-min Rain = 0
KHO1 170157Z 05016G21KT 12/00 A3004 RMK A01 T01170003  RH  045%=      5-min Rain = 0
KHO1 170158Z 05018KT 12/00 A3004 RMK A01 T01160003  RH  046%=      5-min Rain = 0
KHO1 170159Z 06016G22KT 12/00 A3004 RMK A01 T01160003  RH  046%=      5-min Rain = 0
KHO1 170200Z 05013KT 12/00 A3004 RMK A01 T01150003  RH  046%=      5-min Rain = 0
KHO1 170201Z 05015G23KT 11/00 A3005 RMK A01 T01140003  RH  046%=      5-min Rain = 0
KHO1 170202Z 05014KT 11/00 A3005 RMK A01 T01140002  RH  046%=      5-min Rain = 0
KHO1 170203Z 05015G20KT 11/00 A3005 RMK A01 T01130003  RH  046%=      5-min Rain = 0
KHO1 170204Z 05015G21KT 11/00 A3005 RMK A01 T01130002  RH  046%=      5-min Rain = 0
KHO1 170205Z 04015KT 11/00 A3005 RMK A01 T01120002  RH  047%=      5-min Rain = 0
KHO1 170206Z 04014G21KT 11/00 A3005 RMK A01 T01120002  RH  047%=      5-min Rain = 0
KHO1 170207Z 05016KT 11/00 A3005 RMK A01 T01110002  RH  047%=      5-min Rain = 0
KHO1 170208Z 05014G20KT 11/00 A3004 RMK A01 T01110002  RH  047%=      5-min Rain = 0
KHO1 170209Z 05015KT 11/00 A3005 RMK A01 T01110002  RH  047%=      5-min Rain = 0
KHO1 170210Z 04019G25KT 11/00 A3005 RMK A01 T01100002  RH  047%=      5-min Rain = 0
KHO1 170211Z 05016G24KT 11/00 A3005 RMK A01 T01100001  RH  047%=      5-min Rain = 0
KHO1 170212Z 05015G20KT 11/00 A3005 RMK A01 T01090001  RH  047%=      5-min Rain = 0
KHO1 170213Z 05014G19KT 11/00 A3005 RMK A01 T01080001  RH  048%=      5-min Rain = 0
KHO1 170214Z 05013KT 11/00 A3004 RMK A01 T01080001  RH  048%=      5-min Rain = 0
KHO1 170215Z 06016KT 11/00 A3004 RMK A01 T01080002  RH  048%=      5-min Rain = 0
KHO1 170216Z 05016KT 11/00 A3005 RMK A01 T01070002  RH  048%=      5-min Rain = 0
KHO1 170217Z 05016G22KT 11/00 A3005 RMK A01 T01070002  RH  048%=      5-min Rain = 0
KHO1 170218Z 06013KT 11/00 A3005 RMK A01 T01060002  RH  049%=      5-min Rain = 0
KHO1 170219Z 05014G19KT 11/00 A3005 RMK A01 T01050002  RH  049%=      5-min Rain = 0
KHO1 170220Z 05015G23KT 10/00 A3005 RMK A01 T01040002  RH  049%=      5-min Rain = 0
KHO1 170221Z 06018G24KT 10/00 A3005 RMK A01 T01040001  RH  049%=      5-min Rain = 0
KHO1 170222Z 05016G21KT 10/00 A3006 RMK A01 T01030001  RH  049%=      5-min Rain = 0
KHO1 170223Z 05015KT 10/00 A3006 RMK A01 T01030001  RH  049%=      5-min Rain = 0
KHO1 170224Z 05013KT 10/00 A3006 RMK A01 T01020001  RH  049%=      5-min Rain = 0
KHO1 170225Z 06013KT 10/00 A3007 RMK A01 T01020001  RH  049%=      5-min Rain = 0
KHO1 170226Z 05012KT 10/00 A3007 RMK A01 T01010001  RH  050%=      5-min Rain = 0
KHO1 170227Z 05012KT 10/00 A3007 RMK A01 T01010001  RH  050%=      5-min Rain = 0
KHO1 170228Z 05014G22KT 10/00 A3007 RMK A01 T01000000  RH  050%=      5-min Rain = 0
KHO1 170229Z 05017G22KT 10/M00 A3007 RMK A01 T00991001  RH  050%=      5-min Rain = 0
KHO1 170230Z 05016G21KT 10/M00 A3007 RMK A01 T00991001  RH  050%=      5-min Rain = 0
KHO1 170231Z 05015G22KT 10/M00 A3007 RMK A01 T00981001  RH  050%=      5-min Rain = 0
KHO1 170232Z 05015G20KT 10/M00 A3007 RMK A01 T00981001  RH  050%=      5-min Rain = 0
KHO1 170233Z 05013G19KT 10/M00 A3007 RMK A01 T00971001  RH  051%=      5-min Rain = 0
KHO1 170234Z 05013G18KT 10/M00 A3007 RMK A01 T00961001  RH  051%=      5-min Rain = 0
KHO1 170235Z 05017G22KT 10/M00 A3007 RMK A01 T00951001  RH  051%=      5-min Rain = 0
KHO1 170236Z 05018G24KT 10/M00 A3007 RMK A01 T00951002  RH  051%=      5-min Rain = 0
KHO1 170237Z 05016KT 09/M00 A3007 RMK A01 T00941002  RH  051%=      5-min Rain = 0
KHO1 170238Z 05018KT 09/M00 A3007 RMK A01 T00941001  RH  051%=      5-min Rain = 0
KHO1 170239Z 05021G28KT 09/M00 A3007 RMK A01 T00931001  RH  052%=      5-min Rain = 0
KHO1 170240Z 05018G24KT 09/M00 A3007 RMK A01 T00921001  RH  052%=      5-min Rain = 0
KHO1 170241Z 05017G22KT 09/M00 A3008 RMK A01 T00921001  RH  052%=      5-min Rain = 0
KHO1 170242Z 05016KT 09/M00 A3008 RMK A01 T00911001  RH  052%=      5-min Rain = 0
KHO1 170243Z 05017G22KT 09/M00 A3008 RMK A01 T00911001  RH  053%=      5-min Rain = 0
KHO1 170244Z 05017KT 09/M00 A3008 RMK A01 T00901001  RH  053%=      5-min Rain = 0
KHO1 170245Z 05015G22KT 09/M00 A3008 RMK A01 T00901001  RH  053%=      5-min Rain = 0
KHO1 170246Z 04017G22KT 09/M00 A3008 RMK A01 T00891001  RH  053%=      5-min Rain = 0
KHO1 170247Z 04014KT 09/M00 A3008 RMK A01 T00891001  RH  053%=      5-min Rain = 0
KHO1 170248Z 05018G26KT 09/M00 A3008 RMK A01 T00881001  RH  054%=      5-min Rain = 0
KHO1 170249Z 04021G27KT 09/M00 A3008 RMK A01 T00881001  RH  054%=      5-min Rain = 0
KHO1 170250Z 05016G22KT 09/M00 A3009 RMK A01 T00871001  RH  054%=      5-min Rain = 0
KHO1 170251Z 05018G24KT 09/M00 A3009 RMK A01 T00871001  RH  054%=      5-min Rain = 0
KHO1 170252Z 05018G24KT 09/M00 A3009 RMK A01 T00871002  RH  054%=      5-min Rain = 0
KHO1 170253Z 05020G27KT 09/M00 A3009 RMK A01 T00861002  RH  054%=      5-min Rain = 0
KHO1 170254Z 05015G22KT 09/M00 A3009 RMK A01 T00861002  RH  054%=      5-min Rain = 0
KHO1 170255Z 04013G18KT 09/M00 A3009 RMK A01 T00861001  RH  054%=      5-min Rain = 0
KHO1 170256Z 05013G19KT 09/M00 A3009 RMK A01 T00851001  RH  054%=      5-min Rain = 0
KHO1 170257Z 05011KT 09/M00 A3009 RMK A01 T00851001  RH  055%=      5-min Rain = 0
KHO1 170258Z 05013G19KT 09/M00 A3009 RMK A01 T00851001  RH  055%=      5-min Rain = 0
KHO1 170259Z 05012KT 08/M00 A301 RMK A01 T00841001  RH  055%=      5-min Rain = 0
KHO1 170300Z 05015KT 08/M00 A301 RMK A01 T00841001  RH  055%=      5-min Rain = 0
KHO1 170301Z 06014KT 08/M00 A301 RMK A01 T00841002  RH  055%=      5-min Rain = 0
KHO1 170302Z 05012KT 08/M00 A301 RMK A01 T00831002  RH  055%=      5-min Rain = 0
KHO1 170303Z 06014G20KT 08/M00 A301 RMK A01 T00831002  RH  055%=      5-min Rain = 0
KHO1 170304Z 05014G19KT 08/M00 A301 RMK A01 T00831002  RH  055%=      5-min Rain = 0
KHO1 170305Z 05016G21KT 08/M00 A301 RMK A01 T00821003  RH  055%=      5-min Rain = 0
KHO1 170306Z 05015G21KT 08/M00 A301 RMK A01 T00821003  RH  055%=      5-min Rain = 0
KHO1 170307Z 06013G18KT 08/M00 A3011 RMK A01 T00811003  RH  055%=      5-min Rain = 0
KHO1 170308Z 06013KT 08/M00 A3011 RMK A01 T00811003  RH  055%=      5-min Rain = 0
KHO1 170309Z 05013KT 08/M00 A3011 RMK A01 T00811003  RH  055%=      5-min Rain = 0
KHO1 170310Z 05015G21KT 08/M00 A3011 RMK A01 T00801003  RH  055%=      5-min Rain = 0
KHO1 170311Z 05014G20KT 08/M00 A301 RMK A01 T00801004  RH  056%=      5-min Rain = 0
KHO1 170312Z 05017G23KT 08/M00 A301 RMK A01 T00791004  RH  055%=      5-min Rain = 0
KHO1 170313Z 05015KT 08/M00 A301 RMK A01 T00791004  RH  056%=      5-min Rain = 0
KHO1 170314Z 05014G19KT 08/M01 A3011 RMK A01 T00791005  RH  056%=      5-min Rain = 0
KHO1 170315Z 06016G22KT 08/M01 A3011 RMK A01 T00781005  RH  056%=      5-min Rain = 0
KHO1 170316Z 05014KT 08/M01 A3011 RMK A01 T00781005  RH  055%=      5-min Rain = 0
KHO1 170317Z 05013KT 08/M01 A3011 RMK A01 T00781005  RH  056%=      5-min Rain = 0
KHO1 170318Z 05015KT 08/M01 A3011 RMK A01 T00781006  RH  056%=      5-min Rain = 0
KHO1 170319Z 06013G19KT 08/M01 A3011 RMK A01 T00781006  RH  056%=      5-min Rain = 0
KHO1 170320Z 05010KT 08/M01 A3012 RMK A01 T00771006  RH  056%=      5-min Rain = 0
KHO1 170321Z 06014KT 08/M01 A3011 RMK A01 T00771006  RH  056%=      5-min Rain = 0
KHO1 170322Z 06012KT 08/M01 A3011 RMK A01 T00771006  RH  056%=      5-min Rain = 0
KHO1 170323Z 06014G19KT 08/M01 A3011 RMK A01 T00761006  RH  056%=      5-min Rain = 0
KHO1 170324Z 05014G19KT 08/M01 A3011 RMK A01 T00761006  RH  056%=      5-min Rain = 0
KHO1 170325Z 05013KT 08/M01 A3011 RMK A01 T00761006  RH  056%=      5-min Rain = 0
KHO1 170326Z 05015G20KT 08/M01 A3011 RMK A01 T00761006  RH  056%=      5-min Rain = 0
KHO1 170327Z 05015KT 08/M01 A3012 RMK A01 T00751006  RH  056%=      5-min Rain = 0
KHO1 170328Z 05012KT 08/M01 A3012 RMK A01 T00751006  RH  056%=      5-min Rain = 0
KHO1 170329Z 05015KT 08/M01 A3012 RMK A01 T00751006  RH  057%=      5-min Rain = 0
KHO1 170330Z 05015KT 08/M01 A3011 RMK A01 T00751006  RH  057%=      5-min Rain = 0
KHO1 170331Z 04013G18KT 08/M01 A3011 RMK A01 T00751006  RH  057%=      5-min Rain = 0
KHO1 170332Z 05014G19KT 07/M01 A3011 RMK A01 T00741006  RH  057%=      5-min Rain = 0
KHO1 170333Z 05014KT 07/M01 A3011 RMK A01 T00741005  RH  057%=      5-min Rain = 0
KHO1 170334Z 04013KT 07/M01 A3011 RMK A01 T00741005  RH  057%=      5-min Rain = 0
KHO1 170335Z 04018G23KT 07/M01 A3011 RMK A01 T00731005  RH  057%=      5-min Rain = 0
KHO1 170336Z 04015G20KT 07/M01 A3011 RMK A01 T00731005  RH  057%=      5-min Rain = 0
KHO1 170337Z 04016G27KT 07/M01 A3011 RMK A01 T00731005  RH  058%=      5-min Rain = 0
KHO1 170338Z 05016KT 07/M01 A3011 RMK A01 T00731005  RH  058%=      5-min Rain = 0
KHO1 170339Z 04013G19KT 07/M00 A3011 RMK A01 T00731004  RH  058%=      5-min Rain = 0
KHO1 170340Z 04013KT 07/M00 A3012 RMK A01 T00731004  RH  058%=      5-min Rain = 0
KHO1 170341Z 05016G22KT 07/M00 A3012 RMK A01 T00721004  RH  058%=      5-min Rain = 0
KHO1 170342Z 04016G23KT 07/M00 A3012 RMK A01 T00721004  RH  058%=      5-min Rain = 0
KHO1 170343Z 04014KT 07/M00 A3012 RMK A01 T00721004  RH  058%=      5-min Rain = 0
KHO1 170344Z 05019KT 07/M00 A3012 RMK A01 T00721004  RH  059%=      5-min Rain = 0
KHO1 170345Z 05015G22KT 07/M00 A3012 RMK A01 T00721004  RH  059%=      5-min Rain = 0
KHO1 170346Z 04015KT 07/M00 A3012 RMK A01 T00711004  RH  059%=      5-min Rain = 0
KHO1 170347Z 05018KT 07/M00 A3012 RMK A01 T00711003  RH  059%=      5-min Rain = 0
KHO1 170348Z 04016G22KT 07/M00 A3012 RMK A01 T00711003  RH  059%=      5-min Rain = 0
KHO1 170349Z 04014G19KT 07/M00 A3012 RMK A01 T00711003  RH  059%=      5-min Rain = 0
KHO1 170350Z 04013KT 07/M00 A3012 RMK A01 T00711003  RH  059%=      5-min Rain = 0
KHO1 170351Z 05012G20KT 07/M00 A3012 RMK A01 T00701003  RH  060%=      5-min Rain = 0
KHO1 170352Z 05018G25KT 07/M00 A3012 RMK A01 T00701003  RH  060%=      5-min Rain = 0
KHO1 170353Z 04018G23KT 07/M00 A3012 RMK A01 T00701003  RH  060%=      5-min Rain = 0
KHO1 170354Z 04016G22KT 07/M00 A3012 RMK A01 T00691003  RH  060%=      5-min Rain = 0
KHO1 170355Z 05018G24KT 07/M00 A3011 RMK A01 T00691003  RH  060%=      5-min Rain = 0
KHO1 170356Z 04015G20KT 07/M00 A3011 RMK A01 T00691003  RH  060%=      5-min Rain = 0
KHO1 170357Z 04014G19KT 07/M00 A3011 RMK A01 T00681003  RH  060%=      5-min Rain = 0
KHO1 170358Z 04018G23KT 07/M00 A3012 RMK A01 T00681004  RH  060%=      5-min Rain = 0
KHO1 170359Z 05016G22KT 07/M00 A3012 RMK A01 T00681004  RH  060%=      5-min Rain = 0
KHO1 170400Z 05015KT 07/M00 A3012 RMK A01 T00681004  RH  060%=      5-min Rain = 0
KHO1 170401Z 05012KT 07/M00 A3012 RMK A01 T00681004  RH  060%=      5-min Rain = 0
KHO1 170402Z 04011KT 07/M00 A3012 RMK A01 T00671004  RH  060%=      5-min Rain = 0
KHO1 170403Z 05011KT 07/M00 A3012 RMK A01 T00671004  RH  061%=      5-min Rain = 0
KHO1 170404Z 05012KT 07/M00 A3012 RMK A01 T00661004  RH  061%=      5-min Rain = 0
KHO1 170405Z 04013G18KT 07/M00 A3012 RMK A01 T00661004  RH  061%=      5-min Rain = 0
KHO1 170406Z 04014KT 07/M00 A3012 RMK A01 T00661004  RH  061%=      5-min Rain = 0
KHO1 170407Z 04017KT 07/M00 A3012 RMK A01 T00651004  RH  061%=      5-min Rain = 0
KHO1 170408Z 05013KT 07/M00 A3013 RMK A01 T00651004  RH  061%=      5-min Rain = 0
KHO1 170409Z 04012KT 07/M00 A3013 RMK A01 T00651004  RH  061%=      5-min Rain = 0
KHO1 170410Z 05014G20KT 07/M00 A3013 RMK A01 T00651004  RH  061%=      5-min Rain = 0
KHO1 170411Z 04013KT 07/M00 A3013 RMK A01 T00651004  RH  061%=      5-min Rain = 0
KHO1 170412Z 04017KT 07/M00 A3012 RMK A01 T00651004  RH  061%=      5-min Rain = 0
KHO1 170413Z 04014KT 06/M00 A3012 RMK A01 T00641004  RH  062%=      5-min Rain = 0
KHO1 170414Z 04015G20KT 06/M00 A3012 RMK A01 T00641004  RH  062%=      5-min Rain = 0
KHO1 170415Z 04013KT 06/M00 A3012 RMK A01 T00641004  RH  062%=      5-min Rain = 0
KHO1 170416Z 04014KT 06/M00 A3012 RMK A01 T00641004  RH  062%=      5-min Rain = 0
KHO1 170417Z 04016KT 06/M00 A3012 RMK A01 T00631004  RH  062%=      5-min Rain = 0
KHO1 170418Z 04017G22KT 06/M00 A3012 RMK A01 T00631004  RH  062%=      5-min Rain = 0
KHO1 170419Z 04013KT 06/M00 A3012 RMK A01 T00631004  RH  062%=      5-min Rain = 0
KHO1 170420Z 04018G23KT 06/M00 A3012 RMK A01 T00631004  RH  062%=      5-min Rain = 0
KHO1 170421Z 05015G20KT 06/M01 A3012 RMK A01 T00631005  RH  062%=      5-min Rain = 0
KHO1 170422Z 04014G23KT 06/M01 A3012 RMK A01 T00621005  RH  062%=      5-min Rain = 0
KHO1 170423Z 04016G22KT 06/M01 A3012 RMK A01 T00621006  RH  062%=      5-min Rain = 0
KHO1 170424Z 04016G23KT 06/M01 A3012 RMK A01 T00621006  RH  062%=      5-min Rain = 0
KHO1 170425Z 05018G23KT 06/M01 A3012 RMK A01 T00621007  RH  061%=      5-min Rain = 0
KHO1 170426Z 04020KT 06/M01 A3012 RMK A01 T00621007  RH  061%=      5-min Rain = 0
KHO1 170427Z 04018KT 06/M01 A3012 RMK A01 T00621007  RH  061%=      5-min Rain = 0
KHO1 170428Z 04016KT 06/M01 A3012 RMK A01 T00611008  RH  061%=      5-min Rain = 0
KHO1 170429Z 04013KT 06/M01 A3013 RMK A01 T00611008  RH  061%=      5-min Rain = 0
KHO1 170430Z 04018G23KT 06/M01 A3013 RMK A01 T00611009  RH  061%=      5-min Rain = 0
KHO1 170431Z 04017KT 06/M01 A3013 RMK A01 T00611009  RH  061%=      5-min Rain = 0
KHO1 170432Z 04016G22KT 06/M01 A3013 RMK A01 T00601009  RH  061%=      5-min Rain = 0
KHO1 170433Z 04022G27KT 06/M01 A3013 RMK A01 T00601010  RH  061%=      5-min Rain = 0
KHO1 170434Z 04019G25KT 06/M01 A3013 RMK A01 T00601010  RH  061%=      5-min Rain = 0
KHO1 170435Z 04017G22KT 06/M01 A3013 RMK A01 T00601010  RH  061%=      5-min Rain = 0
KHO1 170436Z 03015G20KT 06/M01 A3013 RMK A01 T00601010  RH  061%=      5-min Rain = 0
KHO1 170437Z 03015KT 06/M01 A3013 RMK A01 T00591010  RH  061%=      5-min Rain = 0
KHO1 170438Z 04016KT 06/M01 A3013 RMK A01 T00591010  RH  061%=      5-min Rain = 0
KHO1 170439Z 04016G23KT 06/M01 A3013 RMK A01 T00581010  RH  061%=      5-min Rain = 0
KHO1 170440Z 04016KT 06/M01 A3013 RMK A01 T00581010  RH  062%=      5-min Rain = 0
KHO1 170441Z 04017KT 06/M01 A3013 RMK A01 T00581010  RH  062%=      5-min Rain = 0
KHO1 170442Z 04020KT 06/M01 A3013 RMK A01 T00581010  RH  062%=      5-min Rain = 0
KHO1 170443Z 04019KT 06/M01 A3013 RMK A01 T00581010  RH  061%=      5-min Rain = 0
KHO1 170444Z 04016KT 06/M01 A3013 RMK A01 T00581010  RH  062%=      5-min Rain = 0
KHO1 170445Z 04017KT 06/M01 A3013 RMK A01 T00571010  RH  062%=      5-min Rain = 0
KHO1 170446Z 04019G25KT 06/M01 A3013 RMK A01 T00571010  RH  062%=      5-min Rain = 0
KHO1 170447Z 04019KT 06/M01 A3013 RMK A01 T00571010  RH  062%=      5-min Rain = 0
KHO1 170448Z 04015G23KT 06/M01 A3013 RMK A01 T00571010  RH  062%=      5-min Rain = 0
KHO1 170449Z 04015G20KT 06/M01 A3013 RMK A01 T00571010  RH  062%=      5-min Rain = 0
KHO1 170450Z 04018KT 06/M01 A3014 RMK A01 T00571010  RH  062%=      5-min Rain = 0
KHO1 170451Z 04014G20KT 06/M01 A3014 RMK A01 T00571010  RH  062%=      5-min Rain = 0
KHO1 170452Z 04011G16KT 06/M01 A3014 RMK A01 T00561010  RH  062%=      5-min Rain = 0
KHO1 170453Z 04013KT 06/M01 A3014 RMK A01 T00561010  RH  062%=      5-min Rain = 0
KHO1 170454Z 05013G18KT 06/M01 A3014 RMK A01 T00561010  RH  062%=      5-min Rain = 0
KHO1 170455Z 04014KT 06/M01 A3014 RMK A01 T00561010  RH  062%=      5-min Rain = 0
KHO1 170456Z 04015KT 06/M01 A3014 RMK A01 T00561010  RH  062%=      5-min Rain = 0
KHO1 170457Z 04015KT 06/M01 A3014 RMK A01 T00561010  RH  062%=      5-min Rain = 0
KHO1 170458Z 04015G20KT 06/M01 A3014 RMK A01 T00561010  RH  062%=      5-min Rain = 0
KHO1 170459Z 05011G16KT 06/M01 A3015 RMK A01 T00551010  RH  063%=      5-min Rain = 0

Page generated in 0.065 seconds.